<?xml version="1.0" encoding="UTF-8" standalone="no" ?>
<gpx xmlns="http://www.topografix.com/GPX/1/1" xmlns:xsi="http://www.w3.org/2001/XMLSchema-instance" xsi:schemaLocation="http://www.topografix.com/GPX/1/1 http://www.topografix.com/GPX/1/1/gpx.xsd" version="1.1" creator="VisuGPX - https://www.visugpx.com">
  <metadata>
    <name>Dans Rodez</name>
    <desc><![CDATA[Un circuit pour une bonne préparation Physique.]]></desc>
  </metadata>
  <trk>
    <name><![CDATA[2013-01-28T13_1]]></name>
    <trkseg>
      <trkpt lat="44.35357" lon="2.57248">
        <ele>607.814</ele>
        <time>2013-01-28T13:18:47Z</time>
      </trkpt>
      <trkpt lat="44.35357" lon="2.57248">
        <ele>607.134</ele>
        <time>2013-01-28T13:18:49Z</time>
      </trkpt>
      <trkpt lat="44.35297" lon="2.57201">
        <ele>600.704</ele>
        <time>2013-01-28T13:18:53Z</time>
      </trkpt>
      <trkpt lat="44.35302" lon="2.57186">
        <ele>595.893</ele>
        <time>2013-01-28T13:18:59Z</time>
      </trkpt>
      <trkpt lat="44.35306" lon="2.57171">
        <ele>588.973</ele>
        <time>2013-01-28T13:19:04Z</time>
      </trkpt>
      <trkpt lat="44.35308" lon="2.57162">
        <ele>593.965</ele>
        <time>2013-01-28T13:19:07Z</time>
      </trkpt>
      <trkpt lat="44.35308" lon="2.57163">
        <ele>597.977</ele>
        <time>2013-01-28T13:19:11Z</time>
      </trkpt>
      <trkpt lat="44.35308" lon="2.57163">
        <ele>600.718</ele>
        <time>2013-01-28T13:19:13Z</time>
      </trkpt>
      <trkpt lat="44.35286" lon="2.57133">
        <ele>599.077</ele>
        <time>2013-01-28T13:19:18Z</time>
      </trkpt>
      <trkpt lat="44.3527" lon="2.57122">
        <ele>602.617</ele>
        <time>2013-01-28T13:19:23Z</time>
      </trkpt>
      <trkpt lat="44.35261" lon="2.57116">
        <ele>603.667</ele>
        <time>2013-01-28T13:19:26Z</time>
      </trkpt>
      <trkpt lat="44.3526" lon="2.57115">
        <ele>617.289</ele>
        <time>2013-01-28T13:19:32Z</time>
      </trkpt>
      <trkpt lat="44.35258" lon="2.57114">
        <ele>621.808</ele>
        <time>2013-01-28T13:19:36Z</time>
      </trkpt>
      <trkpt lat="44.35241" lon="2.57103">
        <ele>614.977</ele>
        <time>2013-01-28T13:19:43Z</time>
      </trkpt>
      <trkpt lat="44.35225" lon="2.57094">
        <ele>615.317</ele>
        <time>2013-01-28T13:19:48Z</time>
      </trkpt>
      <trkpt lat="44.35207" lon="2.57083">
        <ele>612.815</ele>
        <time>2013-01-28T13:19:53Z</time>
      </trkpt>
      <trkpt lat="44.35187" lon="2.5707">
        <ele>612.905</ele>
        <time>2013-01-28T13:20:02Z</time>
      </trkpt>
      <trkpt lat="44.35188" lon="2.57071">
        <ele>623.137</ele>
        <time>2013-01-28T13:20:07Z</time>
      </trkpt>
      <trkpt lat="44.35185" lon="2.57069">
        <ele>623.517</ele>
        <time>2013-01-28T13:20:08Z</time>
      </trkpt>
      <trkpt lat="44.35179" lon="2.57065">
        <ele>622.796</ele>
        <time>2013-01-28T13:20:14Z</time>
      </trkpt>
      <trkpt lat="44.35179" lon="2.57065">
        <ele>620.085</ele>
        <time>2013-01-28T13:20:25Z</time>
      </trkpt>
      <trkpt lat="44.35179" lon="2.57065">
        <ele>625.445</ele>
        <time>2013-01-28T13:20:30Z</time>
      </trkpt>
      <trkpt lat="44.35131" lon="2.57106">
        <ele>627.705</ele>
        <time>2013-01-28T13:20:35Z</time>
      </trkpt>
      <trkpt lat="44.35112" lon="2.57044">
        <ele>637.687</ele>
        <time>2013-01-28T13:20:37Z</time>
      </trkpt>
      <trkpt lat="44.35114" lon="2.57025">
        <ele>623.942</ele>
        <time>2013-01-28T13:20:44Z</time>
      </trkpt>
      <trkpt lat="44.35114" lon="2.57021">
        <ele>621.902</ele>
        <time>2013-01-28T13:20:45Z</time>
      </trkpt>
      <trkpt lat="44.35116" lon="2.57">
        <ele>607.129</ele>
        <time>2013-01-28T13:20:51Z</time>
      </trkpt>
      <trkpt lat="44.35116" lon="2.56997">
        <ele>603.839</ele>
        <time>2013-01-28T13:20:52Z</time>
      </trkpt>
      <trkpt lat="44.35117" lon="2.56986">
        <ele>596.14</ele>
        <time>2013-01-28T13:20:58Z</time>
      </trkpt>
      <trkpt lat="44.35118" lon="2.56969">
        <ele>596.632</ele>
        <time>2013-01-28T13:21:04Z</time>
      </trkpt>
      <trkpt lat="44.35119" lon="2.56948">
        <ele>600.625</ele>
        <time>2013-01-28T13:21:11Z</time>
      </trkpt>
      <trkpt lat="44.35084" lon="2.56928">
        <ele>602.545</ele>
        <time>2013-01-28T13:21:17Z</time>
      </trkpt>
      <trkpt lat="44.3509" lon="2.56912">
        <ele>600.925</ele>
        <time>2013-01-28T13:21:23Z</time>
      </trkpt>
      <trkpt lat="44.35095" lon="2.56898">
        <ele>596.514</ele>
        <time>2013-01-28T13:21:28Z</time>
      </trkpt>
      <trkpt lat="44.35125" lon="2.56866">
        <ele>603.626</ele>
        <time>2013-01-28T13:21:34Z</time>
      </trkpt>
      <trkpt lat="44.35126" lon="2.56844">
        <ele>602.285</ele>
        <time>2013-01-28T13:21:40Z</time>
      </trkpt>
      <trkpt lat="44.35127" lon="2.56826">
        <ele>605.035</ele>
        <time>2013-01-28T13:21:45Z</time>
      </trkpt>
      <trkpt lat="44.35129" lon="2.56799">
        <ele>606.325</ele>
        <time>2013-01-28T13:21:52Z</time>
      </trkpt>
      <trkpt lat="44.35129" lon="2.56787">
        <ele>604.804</ele>
        <time>2013-01-28T13:21:56Z</time>
      </trkpt>
      <trkpt lat="44.3513" lon="2.56771">
        <ele>602.974</ele>
        <time>2013-01-28T13:22:01Z</time>
      </trkpt>
      <trkpt lat="44.35131" lon="2.56761">
        <ele>599.002</ele>
        <time>2013-01-28T13:22:05Z</time>
      </trkpt>
      <trkpt lat="44.35132" lon="2.56747">
        <ele>596.933</ele>
        <time>2013-01-28T13:22:10Z</time>
      </trkpt>
      <trkpt lat="44.35132" lon="2.56741">
        <ele>597.584</ele>
        <time>2013-01-28T13:22:12Z</time>
      </trkpt>
      <trkpt lat="44.35052" lon="2.5669">
        <ele>601.085</ele>
        <time>2013-01-28T13:22:19Z</time>
      </trkpt>
      <trkpt lat="44.35052" lon="2.5669">
        <ele>599.964</ele>
        <time>2013-01-28T13:22:25Z</time>
      </trkpt>
      <trkpt lat="44.35056" lon="2.56663">
        <ele>605.086</ele>
        <time>2013-01-28T13:22:30Z</time>
      </trkpt>
      <trkpt lat="44.35059" lon="2.56639">
        <ele>606.375</ele>
        <time>2013-01-28T13:22:36Z</time>
      </trkpt>
      <trkpt lat="44.35063" lon="2.56623">
        <ele>601.713</ele>
        <time>2013-01-28T13:22:41Z</time>
      </trkpt>
      <trkpt lat="44.35067" lon="2.5661">
        <ele>601.943</ele>
        <time>2013-01-28T13:22:46Z</time>
      </trkpt>
      <trkpt lat="44.35073" lon="2.56596">
        <ele>602.233</ele>
        <time>2013-01-28T13:22:50Z</time>
      </trkpt>
      <trkpt lat="44.35076" lon="2.56589">
        <ele>597.352</ele>
        <time>2013-01-28T13:22:56Z</time>
      </trkpt>
      <trkpt lat="44.35076" lon="2.56589">
        <ele>606.361</ele>
        <time>2013-01-28T13:23:01Z</time>
      </trkpt>
      <trkpt lat="44.35076" lon="2.56589">
        <ele>601.74</ele>
        <time>2013-01-28T13:23:13Z</time>
      </trkpt>
      <trkpt lat="44.35076" lon="2.56589">
        <ele>573.17</ele>
        <time>2013-01-28T13:23:24Z</time>
      </trkpt>
      <trkpt lat="44.35076" lon="2.56589">
        <ele>575.031</ele>
        <time>2013-01-28T13:23:31Z</time>
      </trkpt>
      <trkpt lat="44.35076" lon="2.56589">
        <ele>594.998</ele>
        <time>2013-01-28T13:23:36Z</time>
      </trkpt>
      <trkpt lat="44.35076" lon="2.56589">
        <ele>605.687</ele>
        <time>2013-01-28T13:23:41Z</time>
      </trkpt>
      <trkpt lat="44.35068" lon="2.56585">
        <ele>606.239</ele>
        <time>2013-01-28T13:23:44Z</time>
      </trkpt>
      <trkpt lat="44.35068" lon="2.56585">
        <ele>611.469</ele>
        <time>2013-01-28T13:23:48Z</time>
      </trkpt>
      <trkpt lat="44.35059" lon="2.5658">
        <ele>626.29</ele>
        <time>2013-01-28T13:23:52Z</time>
      </trkpt>
      <trkpt lat="44.35113" lon="2.56523">
        <ele>635.253</ele>
        <time>2013-01-28T13:23:57Z</time>
      </trkpt>
      <trkpt lat="44.35049" lon="2.56574">
        <ele>653.356</ele>
        <time>2013-01-28T13:24:02Z</time>
      </trkpt>
      <trkpt lat="44.35045" lon="2.56572">
        <ele>657.973</ele>
        <time>2013-01-28T13:24:08Z</time>
      </trkpt>
      <trkpt lat="44.35044" lon="2.56571">
        <ele>660.872</ele>
        <time>2013-01-28T13:24:10Z</time>
      </trkpt>
      <trkpt lat="44.35054" lon="2.56577">
        <ele>673.414</ele>
        <time>2013-01-28T13:24:15Z</time>
      </trkpt>
      <trkpt lat="44.35076" lon="2.56589">
        <ele>687.376</ele>
        <time>2013-01-28T13:24:20Z</time>
      </trkpt>
      <trkpt lat="44.3506" lon="2.5658">
        <ele>694.87</ele>
        <time>2013-01-28T13:24:27Z</time>
      </trkpt>
      <trkpt lat="44.35074" lon="2.56594">
        <ele>706.994</ele>
        <time>2013-01-28T13:24:33Z</time>
      </trkpt>
      <trkpt lat="44.35069" lon="2.56605">
        <ele>714.396</ele>
        <time>2013-01-28T13:24:37Z</time>
      </trkpt>
      <trkpt lat="44.35065" lon="2.56617">
        <ele>721.709</ele>
        <time>2013-01-28T13:24:43Z</time>
      </trkpt>
      <trkpt lat="44.35059" lon="2.56638">
        <ele>725.628</ele>
        <time>2013-01-28T13:24:47Z</time>
      </trkpt>
      <trkpt lat="44.35055" lon="2.56671">
        <ele>721.946</ele>
        <time>2013-01-28T13:24:52Z</time>
      </trkpt>
      <trkpt lat="44.35125" lon="2.56719">
        <ele>721.305</ele>
        <time>2013-01-28T13:24:57Z</time>
      </trkpt>
      <trkpt lat="44.35124" lon="2.5673">
        <ele>721.865</ele>
        <time>2013-01-28T13:24:59Z</time>
      </trkpt>
      <trkpt lat="44.35052" lon="2.5669">
        <ele>711.093</ele>
        <time>2013-01-28T13:25:04Z</time>
      </trkpt>
      <trkpt lat="44.35045" lon="2.56722">
        <ele>705.234</ele>
        <time>2013-01-28T13:25:08Z</time>
      </trkpt>
      <trkpt lat="44.35043" lon="2.5673">
        <ele>699.083</ele>
        <time>2013-01-28T13:25:13Z</time>
      </trkpt>
      <trkpt lat="44.35034" lon="2.56748">
        <ele>712.619</ele>
        <time>2013-01-28T13:25:23Z</time>
      </trkpt>
      <trkpt lat="44.35031" lon="2.56755">
        <ele>718.161</ele>
        <time>2013-01-28T13:25:26Z</time>
      </trkpt>
      <trkpt lat="44.35023" lon="2.56767">
        <ele>725.568</ele>
        <time>2013-01-28T13:25:33Z</time>
      </trkpt>
      <trkpt lat="44.35018" lon="2.56775">
        <ele>734.169</ele>
        <time>2013-01-28T13:25:37Z</time>
      </trkpt>
      <trkpt lat="44.35013" lon="2.56782">
        <ele>741.158</ele>
        <time>2013-01-28T13:25:41Z</time>
      </trkpt>
      <trkpt lat="44.35011" lon="2.56786">
        <ele>746.889</ele>
        <time>2013-01-28T13:25:44Z</time>
      </trkpt>
      <trkpt lat="44.35003" lon="2.56798">
        <ele>753.518</ele>
        <time>2013-01-28T13:25:52Z</time>
      </trkpt>
      <trkpt lat="44.34994" lon="2.5681">
        <ele>760.809</ele>
        <time>2013-01-28T13:25:55Z</time>
      </trkpt>
      <trkpt lat="44.34988" lon="2.56817">
        <ele>768.161</ele>
        <time>2013-01-28T13:26:00Z</time>
      </trkpt>
      <trkpt lat="44.34984" lon="2.56821">
        <ele>771.758</ele>
        <time>2013-01-28T13:26:02Z</time>
      </trkpt>
      <trkpt lat="44.34975" lon="2.56831">
        <ele>785.549</ele>
        <time>2013-01-28T13:26:08Z</time>
      </trkpt>
      <trkpt lat="44.3497" lon="2.56836">
        <ele>794.439</ele>
        <time>2013-01-28T13:26:12Z</time>
      </trkpt>
      <trkpt lat="44.34968" lon="2.56838">
        <ele>799.029</ele>
        <time>2013-01-28T13:26:16Z</time>
      </trkpt>
      <trkpt lat="44.34962" lon="2.56846">
        <ele>808.339</ele>
        <time>2013-01-28T13:26:21Z</time>
      </trkpt>
      <trkpt lat="44.34954" lon="2.56854">
        <ele>818.298</ele>
        <time>2013-01-28T13:26:27Z</time>
      </trkpt>
      <trkpt lat="44.34946" lon="2.56863">
        <ele>824.038</ele>
        <time>2013-01-28T13:26:32Z</time>
      </trkpt>
      <trkpt lat="44.34941" lon="2.56869">
        <ele>833.347</ele>
        <time>2013-01-28T13:26:37Z</time>
      </trkpt>
      <trkpt lat="44.3493" lon="2.56879">
        <ele>845.799</ele>
        <time>2013-01-28T13:26:42Z</time>
      </trkpt>
      <trkpt lat="44.34919" lon="2.5689">
        <ele>853.087</ele>
        <time>2013-01-28T13:26:48Z</time>
      </trkpt>
      <trkpt lat="44.34907" lon="2.56898">
        <ele>856.157</ele>
        <time>2013-01-28T13:26:53Z</time>
      </trkpt>
      <trkpt lat="44.34899" lon="2.56903">
        <ele>858.217</ele>
        <time>2013-01-28T13:26:58Z</time>
      </trkpt>
      <trkpt lat="44.3489" lon="2.56908">
        <ele>867.867</ele>
        <time>2013-01-28T13:27:03Z</time>
      </trkpt>
      <trkpt lat="44.34884" lon="2.56912">
        <ele>872.617</ele>
        <time>2013-01-28T13:27:06Z</time>
      </trkpt>
      <trkpt lat="44.34875" lon="2.56919">
        <ele>887.68</ele>
        <time>2013-01-28T13:27:13Z</time>
      </trkpt>
      <trkpt lat="44.34874" lon="2.5692">
        <ele>889.22</ele>
        <time>2013-01-28T13:27:14Z</time>
      </trkpt>
      <trkpt lat="44.34871" lon="2.56921">
        <ele>896.791</ele>
        <time>2013-01-28T13:27:17Z</time>
      </trkpt>
      <trkpt lat="44.34865" lon="2.56925">
        <ele>905.973</ele>
        <time>2013-01-28T13:27:21Z</time>
      </trkpt>
      <trkpt lat="44.34771" lon="2.57008">
        <ele>704.26</ele>
        <time>2013-01-28T13:27:26Z</time>
      </trkpt>
      <trkpt lat="44.34767" lon="2.57016">
        <ele>689.644</ele>
        <time>2013-01-28T13:27:32Z</time>
      </trkpt>
      <trkpt lat="44.34767" lon="2.57016">
        <ele>687.043</ele>
        <time>2013-01-28T13:27:44Z</time>
      </trkpt>
      <trkpt lat="44.34685" lon="2.57103">
        <ele>683.352</ele>
        <time>2013-01-28T13:28:01Z</time>
      </trkpt>
      <trkpt lat="44.34685" lon="2.57103">
        <ele>682.472</ele>
        <time>2013-01-28T13:28:02Z</time>
      </trkpt>
      <trkpt lat="44.3476" lon="2.57037">
        <ele>677.221</ele>
        <time>2013-01-28T13:28:06Z</time>
      </trkpt>
      <trkpt lat="44.34739" lon="2.57032">
        <ele>674.672</ele>
        <time>2013-01-28T13:28:13Z</time>
      </trkpt>
      <trkpt lat="44.34739" lon="2.57032">
        <ele>674.272</ele>
        <time>2013-01-28T13:28:14Z</time>
      </trkpt>
      <trkpt lat="44.34743" lon="2.57048">
        <ele>671.862</ele>
        <time>2013-01-28T13:28:18Z</time>
      </trkpt>
      <trkpt lat="44.34698" lon="2.57022">
        <ele>669.462</ele>
        <time>2013-01-28T13:28:23Z</time>
      </trkpt>
      <trkpt lat="44.34698" lon="2.57022">
        <ele>667.202</ele>
        <time>2013-01-28T13:28:28Z</time>
      </trkpt>
      <trkpt lat="44.34757" lon="2.57064">
        <ele>671.704</ele>
        <time>2013-01-28T13:28:32Z</time>
      </trkpt>
      <trkpt lat="44.34761" lon="2.57066">
        <ele>672.115</ele>
        <time>2013-01-28T13:28:37Z</time>
      </trkpt>
      <trkpt lat="44.34752" lon="2.5708">
        <ele>673.337</ele>
        <time>2013-01-28T13:28:42Z</time>
      </trkpt>
      <trkpt lat="44.34752" lon="2.5708">
        <ele>673.203</ele>
        <time>2013-01-28T13:28:43Z</time>
      </trkpt>
      <trkpt lat="44.34752" lon="2.5708">
        <ele>667.193</ele>
        <time>2013-01-28T13:28:46Z</time>
      </trkpt>
      <trkpt lat="44.34752" lon="2.5708">
        <ele>664.143</ele>
        <time>2013-01-28T13:28:49Z</time>
      </trkpt>
      <trkpt lat="44.34752" lon="2.5708">
        <ele>665.043</ele>
        <time>2013-01-28T13:28:56Z</time>
      </trkpt>
      <trkpt lat="44.34752" lon="2.5708">
        <ele>659.516</ele>
        <time>2013-01-28T13:29:01Z</time>
      </trkpt>
      <trkpt lat="44.34752" lon="2.5708">
        <ele>658.214</ele>
        <time>2013-01-28T13:29:10Z</time>
      </trkpt>
      <trkpt lat="44.34752" lon="2.5708">
        <ele>664.756</ele>
        <time>2013-01-28T13:29:15Z</time>
      </trkpt>
      <trkpt lat="44.34752" lon="2.5708">
        <ele>662.665</ele>
        <time>2013-01-28T13:29:17Z</time>
      </trkpt>
      <trkpt lat="44.34752" lon="2.5708">
        <ele>654.091</ele>
        <time>2013-01-28T13:29:22Z</time>
      </trkpt>
      <trkpt lat="44.3475" lon="2.57092">
        <ele>681.48</ele>
        <time>2013-01-28T13:29:31Z</time>
      </trkpt>
      <trkpt lat="44.34749" lon="2.57095">
        <ele>699.373</ele>
        <time>2013-01-28T13:29:36Z</time>
      </trkpt>
      <trkpt lat="44.34749" lon="2.57095">
        <ele>724.857</ele>
        <time>2013-01-28T13:29:42Z</time>
      </trkpt>
      <trkpt lat="44.34839" lon="2.57174">
        <ele>733.965</ele>
        <time>2013-01-28T13:29:48Z</time>
      </trkpt>
      <trkpt lat="44.3483" lon="2.57198">
        <ele>742.025</ele>
        <time>2013-01-28T13:29:53Z</time>
      </trkpt>
      <trkpt lat="44.34823" lon="2.57212">
        <ele>739.461</ele>
        <time>2013-01-28T13:29:59Z</time>
      </trkpt>
      <trkpt lat="44.34791" lon="2.57238">
        <ele>740.21</ele>
        <time>2013-01-28T13:30:05Z</time>
      </trkpt>
      <trkpt lat="44.34777" lon="2.57234">
        <ele>748.11</ele>
        <time>2013-01-28T13:30:10Z</time>
      </trkpt>
      <trkpt lat="44.34825" lon="2.57256">
        <ele>754.429</ele>
        <time>2013-01-28T13:30:16Z</time>
      </trkpt>
      <trkpt lat="44.3477" lon="2.57231">
        <ele>758.69</ele>
        <time>2013-01-28T13:30:18Z</time>
      </trkpt>
      <trkpt lat="44.34762" lon="2.57226">
        <ele>771.004</ele>
        <time>2013-01-28T13:30:23Z</time>
      </trkpt>
      <trkpt lat="44.34759" lon="2.57225">
        <ele>771.261</ele>
        <time>2013-01-28T13:30:25Z</time>
      </trkpt>
      <trkpt lat="44.34758" lon="2.57224">
        <ele>780.683</ele>
        <time>2013-01-28T13:30:29Z</time>
      </trkpt>
      <trkpt lat="44.34758" lon="2.57224">
        <ele>785.889</ele>
        <time>2013-01-28T13:30:34Z</time>
      </trkpt>
      <trkpt lat="44.34758" lon="2.57224">
        <ele>787.538</ele>
        <time>2013-01-28T13:30:35Z</time>
      </trkpt>
      <trkpt lat="44.34758" lon="2.57224">
        <ele>803.593</ele>
        <time>2013-01-28T13:30:41Z</time>
      </trkpt>
      <trkpt lat="44.34728" lon="2.57267">
        <ele>798.339</ele>
        <time>2013-01-28T13:30:49Z</time>
      </trkpt>
      <trkpt lat="44.34728" lon="2.57267">
        <ele>794.788</ele>
        <time>2013-01-28T13:30:51Z</time>
      </trkpt>
      <trkpt lat="44.34728" lon="2.57267">
        <ele>776.542</ele>
        <time>2013-01-28T13:30:56Z</time>
      </trkpt>
      <trkpt lat="44.34748" lon="2.57214">
        <ele>779.154</ele>
        <time>2013-01-28T13:30:59Z</time>
      </trkpt>
      <trkpt lat="44.34704" lon="2.57206">
        <ele>791.635</ele>
        <time>2013-01-28T13:31:05Z</time>
      </trkpt>
      <trkpt lat="44.34704" lon="2.57206">
        <ele>795.065</ele>
        <time>2013-01-28T13:31:08Z</time>
      </trkpt>
      <trkpt lat="44.34707" lon="2.57178">
        <ele>781.484</ele>
        <time>2013-01-28T13:31:13Z</time>
      </trkpt>
      <trkpt lat="44.34709" lon="2.57172">
        <ele>784.144</ele>
        <time>2013-01-28T13:31:19Z</time>
      </trkpt>
      <trkpt lat="44.34709" lon="2.57172">
        <ele>771.253</ele>
        <time>2013-01-28T13:31:21Z</time>
      </trkpt>
      <trkpt lat="44.34709" lon="2.57172">
        <ele>769.653</ele>
        <time>2013-01-28T13:31:24Z</time>
      </trkpt>
      <trkpt lat="44.34709" lon="2.57172">
        <ele>769.713</ele>
        <time>2013-01-28T13:31:31Z</time>
      </trkpt>
      <trkpt lat="44.34718" lon="2.57117">
        <ele>766.482</ele>
        <time>2013-01-28T13:31:33Z</time>
      </trkpt>
      <trkpt lat="44.34711" lon="2.57117">
        <ele>762.821</ele>
        <time>2013-01-28T13:31:37Z</time>
      </trkpt>
      <trkpt lat="44.34703" lon="2.57166">
        <ele>762.012</ele>
        <time>2013-01-28T13:31:41Z</time>
      </trkpt>
      <trkpt lat="44.34715" lon="2.57095">
        <ele>765.523</ele>
        <time>2013-01-28T13:31:46Z</time>
      </trkpt>
      <trkpt lat="44.34715" lon="2.57095">
        <ele>766.903</ele>
        <time>2013-01-28T13:31:47Z</time>
      </trkpt>
      <trkpt lat="44.34715" lon="2.57095">
        <ele>769.413</ele>
        <time>2013-01-28T13:31:49Z</time>
      </trkpt>
      <trkpt lat="44.34745" lon="2.57076">
        <ele>775.424</ele>
        <time>2013-01-28T13:31:54Z</time>
      </trkpt>
      <trkpt lat="44.34692" lon="2.57035">
        <ele>781.885</ele>
        <time>2013-01-28T13:31:58Z</time>
      </trkpt>
      <trkpt lat="44.34692" lon="2.57108">
        <ele>791.786</ele>
        <time>2013-01-28T13:32:05Z</time>
      </trkpt>
      <trkpt lat="44.34707" lon="2.57051">
        <ele>797.036</ele>
        <time>2013-01-28T13:32:10Z</time>
      </trkpt>
      <trkpt lat="44.34715" lon="2.57095">
        <ele>797.985</ele>
        <time>2013-01-28T13:32:11Z</time>
      </trkpt>
      <trkpt lat="44.34715" lon="2.57095">
        <ele>802.856</ele>
        <time>2013-01-28T13:32:14Z</time>
      </trkpt>
      <trkpt lat="44.34715" lon="2.57095">
        <ele>807.257</ele>
        <time>2013-01-28T13:32:17Z</time>
      </trkpt>
      <trkpt lat="44.34702" lon="2.57048">
        <ele>815.857</ele>
        <time>2013-01-28T13:32:22Z</time>
      </trkpt>
      <trkpt lat="44.34659" lon="2.57047">
        <ele>784.326</ele>
        <time>2013-01-28T13:32:26Z</time>
      </trkpt>
      <trkpt lat="44.34638" lon="2.57065">
        <ele>750.553</ele>
        <time>2013-01-28T13:32:30Z</time>
      </trkpt>
      <trkpt lat="44.34638" lon="2.57065">
        <ele>729.562</ele>
        <time>2013-01-28T13:32:34Z</time>
      </trkpt>
      <trkpt lat="44.34589" lon="2.57065">
        <ele>750.054</ele>
        <time>2013-01-28T13:32:41Z</time>
      </trkpt>
      <trkpt lat="44.34587" lon="2.57062">
        <ele>744.605</ele>
        <time>2013-01-28T13:32:43Z</time>
      </trkpt>
      <trkpt lat="44.34587" lon="2.57062">
        <ele>677.042</ele>
        <time>2013-01-28T13:33:08Z</time>
      </trkpt>
      <trkpt lat="44.34587" lon="2.57062">
        <ele>678.413</ele>
        <time>2013-01-28T13:33:09Z</time>
      </trkpt>
      <trkpt lat="44.34573" lon="2.57041">
        <ele>686.615</ele>
        <time>2013-01-28T13:33:16Z</time>
      </trkpt>
      <trkpt lat="44.34573" lon="2.57041">
        <ele>691.744</ele>
        <time>2013-01-28T13:33:31Z</time>
      </trkpt>
      <trkpt lat="44.34504" lon="2.57093">
        <ele>677.462</ele>
        <time>2013-01-28T13:33:36Z</time>
      </trkpt>
      <trkpt lat="44.34494" lon="2.57091">
        <ele>674.562</ele>
        <time>2013-01-28T13:33:40Z</time>
      </trkpt>
      <trkpt lat="44.34484" lon="2.57096">
        <ele>677.932</ele>
        <time>2013-01-28T13:33:43Z</time>
      </trkpt>
      <trkpt lat="44.34477" lon="2.57101">
        <ele>694.594</ele>
        <time>2013-01-28T13:33:48Z</time>
      </trkpt>
      <trkpt lat="44.34477" lon="2.57101">
        <ele>697.242</ele>
        <time>2013-01-28T13:33:54Z</time>
      </trkpt>
      <trkpt lat="44.34449" lon="2.57117">
        <ele>703.085</ele>
        <time>2013-01-28T13:34:03Z</time>
      </trkpt>
      <trkpt lat="44.34444" lon="2.57119">
        <ele>706.126</ele>
        <time>2013-01-28T13:34:07Z</time>
      </trkpt>
      <trkpt lat="44.3444" lon="2.57121">
        <ele>711.658</ele>
        <time>2013-01-28T13:34:10Z</time>
      </trkpt>
      <trkpt lat="44.34435" lon="2.57123">
        <ele>717.789</ele>
        <time>2013-01-28T13:34:15Z</time>
      </trkpt>
      <trkpt lat="44.3443" lon="2.57125">
        <ele>724.9</ele>
        <time>2013-01-28T13:34:20Z</time>
      </trkpt>
      <trkpt lat="44.3443" lon="2.57125">
        <ele>725.628</ele>
        <time>2013-01-28T13:34:21Z</time>
      </trkpt>
      <trkpt lat="44.34429" lon="2.57125">
        <ele>727.949</ele>
        <time>2013-01-28T13:34:24Z</time>
      </trkpt>
      <trkpt lat="44.34409" lon="2.57153">
        <ele>719.576</ele>
        <time>2013-01-28T13:34:29Z</time>
      </trkpt>
      <trkpt lat="44.34404" lon="2.57169">
        <ele>714.756</ele>
        <time>2013-01-28T13:34:33Z</time>
      </trkpt>
      <trkpt lat="44.34403" lon="2.57172">
        <ele>713.344</ele>
        <time>2013-01-28T13:34:35Z</time>
      </trkpt>
      <trkpt lat="44.34397" lon="2.57197">
        <ele>687.121</ele>
        <time>2013-01-28T13:34:41Z</time>
      </trkpt>
      <trkpt lat="44.34397" lon="2.57202">
        <ele>680.021</ele>
        <time>2013-01-28T13:34:43Z</time>
      </trkpt>
      <trkpt lat="44.34431" lon="2.57131">
        <ele>665.798</ele>
        <time>2013-01-28T13:34:46Z</time>
      </trkpt>
      <trkpt lat="44.34431" lon="2.57131">
        <ele>651.687</ele>
        <time>2013-01-28T13:34:52Z</time>
      </trkpt>
      <trkpt lat="44.34431" lon="2.57131">
        <ele>644.849</ele>
        <time>2013-01-28T13:34:58Z</time>
      </trkpt>
      <trkpt lat="44.34401" lon="2.57243">
        <ele>628.748</ele>
        <time>2013-01-28T13:35:04Z</time>
      </trkpt>
      <trkpt lat="44.34405" lon="2.57253">
        <ele>619.249</ele>
        <time>2013-01-28T13:35:09Z</time>
      </trkpt>
      <trkpt lat="44.34407" lon="2.57257">
        <ele>613.437</ele>
        <time>2013-01-28T13:35:11Z</time>
      </trkpt>
      <trkpt lat="44.34409" lon="2.5726">
        <ele>609.884</ele>
        <time>2013-01-28T13:35:16Z</time>
      </trkpt>
      <trkpt lat="44.34469" lon="2.57356">
        <ele>616.185</ele>
        <time>2013-01-28T13:35:59Z</time>
      </trkpt>
      <trkpt lat="44.34482" lon="2.57374">
        <ele>628.758</ele>
        <time>2013-01-28T13:36:05Z</time>
      </trkpt>
      <trkpt lat="44.34487" lon="2.57382">
        <ele>627.015</ele>
        <time>2013-01-28T13:36:11Z</time>
      </trkpt>
      <trkpt lat="44.34498" lon="2.57398">
        <ele>625.324</ele>
        <time>2013-01-28T13:36:18Z</time>
      </trkpt>
      <trkpt lat="44.34509" lon="2.57414">
        <ele>627.164</ele>
        <time>2013-01-28T13:36:24Z</time>
      </trkpt>
      <trkpt lat="44.34513" lon="2.57419">
        <ele>621.183</ele>
        <time>2013-01-28T13:36:27Z</time>
      </trkpt>
      <trkpt lat="44.34515" lon="2.57423">
        <ele>620.263</ele>
        <time>2013-01-28T13:36:31Z</time>
      </trkpt>
      <trkpt lat="44.34548" lon="2.57471">
        <ele>621.953</ele>
        <time>2013-01-28T13:36:37Z</time>
      </trkpt>
      <trkpt lat="44.34519" lon="2.57429">
        <ele>613.622</ele>
        <time>2013-01-28T13:36:42Z</time>
      </trkpt>
      <trkpt lat="44.34524" lon="2.57435">
        <ele>605.79</ele>
        <time>2013-01-28T13:36:46Z</time>
      </trkpt>
      <trkpt lat="44.34524" lon="2.57437">
        <ele>602.298</ele>
        <time>2013-01-28T13:36:50Z</time>
      </trkpt>
      <trkpt lat="44.34527" lon="2.57441">
        <ele>599.121</ele>
        <time>2013-01-28T13:36:57Z</time>
      </trkpt>
      <trkpt lat="44.3453" lon="2.57445">
        <ele>604.724</ele>
        <time>2013-01-28T13:37:01Z</time>
      </trkpt>
      <trkpt lat="44.34548" lon="2.57471">
        <ele>610.505</ele>
        <time>2013-01-28T13:37:05Z</time>
      </trkpt>
      <trkpt lat="44.34535" lon="2.57452">
        <ele>613.324</ele>
        <time>2013-01-28T13:37:09Z</time>
      </trkpt>
      <trkpt lat="44.34537" lon="2.57455">
        <ele>610.674</ele>
        <time>2013-01-28T13:37:11Z</time>
      </trkpt>
      <trkpt lat="44.34548" lon="2.57471">
        <ele>609.104</ele>
        <time>2013-01-28T13:37:18Z</time>
      </trkpt>
      <trkpt lat="44.34571" lon="2.57446">
        <ele>607.193</ele>
        <time>2013-01-28T13:37:23Z</time>
      </trkpt>
      <trkpt lat="44.34571" lon="2.57446">
        <ele>608.044</ele>
        <time>2013-01-28T13:37:26Z</time>
      </trkpt>
      <trkpt lat="44.34582" lon="2.5751">
        <ele>600.951</ele>
        <time>2013-01-28T13:37:34Z</time>
      </trkpt>
      <trkpt lat="44.34582" lon="2.5751">
        <ele>594.98</ele>
        <time>2013-01-28T13:37:36Z</time>
      </trkpt>
      <trkpt lat="44.34649" lon="2.57481">
        <ele>589.44</ele>
        <time>2013-01-28T13:37:44Z</time>
      </trkpt>
      <trkpt lat="44.34649" lon="2.57481">
        <ele>590.279</ele>
        <time>2013-01-28T13:37:49Z</time>
      </trkpt>
      <trkpt lat="44.34649" lon="2.57481">
        <ele>589.301</ele>
        <time>2013-01-28T13:37:52Z</time>
      </trkpt>
      <trkpt lat="44.34664" lon="2.57484">
        <ele>596.043</ele>
        <time>2013-01-28T13:37:58Z</time>
      </trkpt>
      <trkpt lat="44.34664" lon="2.57484">
        <ele>601.434</ele>
        <time>2013-01-28T13:38:01Z</time>
      </trkpt>
      <trkpt lat="44.34651" lon="2.57525">
        <ele>605.795</ele>
        <time>2013-01-28T13:38:05Z</time>
      </trkpt>
      <trkpt lat="44.34674" lon="2.57528">
        <ele>615.056</ele>
        <time>2013-01-28T13:38:10Z</time>
      </trkpt>
      <trkpt lat="44.34684" lon="2.57519">
        <ele>621.366</ele>
        <time>2013-01-28T13:38:17Z</time>
      </trkpt>
      <trkpt lat="44.34684" lon="2.57519">
        <ele>624.854</ele>
        <time>2013-01-28T13:38:24Z</time>
      </trkpt>
      <trkpt lat="44.34684" lon="2.57519">
        <ele>625.045</ele>
        <time>2013-01-28T13:38:27Z</time>
      </trkpt>
      <trkpt lat="44.3473" lon="2.57533">
        <ele>621.063</ele>
        <time>2013-01-28T13:38:30Z</time>
      </trkpt>
      <trkpt lat="44.3473" lon="2.57533">
        <ele>619.523</ele>
        <time>2013-01-28T13:38:34Z</time>
      </trkpt>
      <trkpt lat="44.34678" lon="2.57517">
        <ele>616.972</ele>
        <time>2013-01-28T13:38:41Z</time>
      </trkpt>
      <trkpt lat="44.3468" lon="2.57511">
        <ele>611.901</ele>
        <time>2013-01-28T13:38:45Z</time>
      </trkpt>
      <trkpt lat="44.3468" lon="2.57511">
        <ele>611.312</ele>
        <time>2013-01-28T13:38:46Z</time>
      </trkpt>
      <trkpt lat="44.3473" lon="2.57533">
        <ele>617.613</ele>
        <time>2013-01-28T13:38:52Z</time>
      </trkpt>
      <trkpt lat="44.3473" lon="2.57533">
        <ele>613.606</ele>
        <time>2013-01-28T13:38:54Z</time>
      </trkpt>
      <trkpt lat="44.34762" lon="2.57591">
        <ele>608.893</ele>
        <time>2013-01-28T13:39:01Z</time>
      </trkpt>
      <trkpt lat="44.34763" lon="2.57583">
        <ele>604.893</ele>
        <time>2013-01-28T13:39:08Z</time>
      </trkpt>
      <trkpt lat="44.34764" lon="2.57581">
        <ele>601.582</ele>
        <time>2013-01-28T13:39:11Z</time>
      </trkpt>
      <trkpt lat="44.34758" lon="2.5759">
        <ele>595.562</ele>
        <time>2013-01-28T13:39:16Z</time>
      </trkpt>
      <trkpt lat="44.34762" lon="2.57591">
        <ele>591.564</ele>
        <time>2013-01-28T13:39:19Z</time>
      </trkpt>
      <trkpt lat="44.3476" lon="2.5759">
        <ele>586.922</ele>
        <time>2013-01-28T13:39:29Z</time>
      </trkpt>
      <trkpt lat="44.34762" lon="2.57591">
        <ele>593.694</ele>
        <time>2013-01-28T13:39:36Z</time>
      </trkpt>
      <trkpt lat="44.34762" lon="2.57591">
        <ele>596.105</ele>
        <time>2013-01-28T13:39:42Z</time>
      </trkpt>
      <trkpt lat="44.34762" lon="2.57591">
        <ele>606.078</ele>
        <time>2013-01-28T13:39:52Z</time>
      </trkpt>
      <trkpt lat="44.34772" lon="2.57687">
        <ele>596.524</ele>
        <time>2013-01-28T13:39:58Z</time>
      </trkpt>
      <trkpt lat="44.34788" lon="2.57704">
        <ele>597.954</ele>
        <time>2013-01-28T13:40:03Z</time>
      </trkpt>
      <trkpt lat="44.34788" lon="2.57704">
        <ele>600.381</ele>
        <time>2013-01-28T13:40:05Z</time>
      </trkpt>
      <trkpt lat="44.34793" lon="2.57709">
        <ele>595.615</ele>
        <time>2013-01-28T13:40:11Z</time>
      </trkpt>
      <trkpt lat="44.34792" lon="2.57708">
        <ele>590.135</ele>
        <time>2013-01-28T13:40:14Z</time>
      </trkpt>
      <trkpt lat="44.34794" lon="2.57711">
        <ele>588.064</ele>
        <time>2013-01-28T13:40:19Z</time>
      </trkpt>
      <trkpt lat="44.34794" lon="2.57711">
        <ele>589.137</ele>
        <time>2013-01-28T13:40:21Z</time>
      </trkpt>
      <trkpt lat="44.34794" lon="2.57711">
        <ele>550.994</ele>
        <time>2013-01-28T13:40:37Z</time>
      </trkpt>
      <trkpt lat="44.34759" lon="2.5778">
        <ele>546.504</ele>
        <time>2013-01-28T13:40:40Z</time>
      </trkpt>
      <trkpt lat="44.34754" lon="2.57783">
        <ele>539.934</ele>
        <time>2013-01-28T13:40:45Z</time>
      </trkpt>
      <trkpt lat="44.34746" lon="2.57788">
        <ele>531.492</ele>
        <time>2013-01-28T13:40:49Z</time>
      </trkpt>
      <trkpt lat="44.34743" lon="2.5779">
        <ele>524.347</ele>
        <time>2013-01-28T13:40:54Z</time>
      </trkpt>
      <trkpt lat="44.34743" lon="2.5779">
        <ele>522.661</ele>
        <time>2013-01-28T13:40:58Z</time>
      </trkpt>
      <trkpt lat="44.34743" lon="2.5779">
        <ele>521.152</ele>
        <time>2013-01-28T13:40:59Z</time>
      </trkpt>
      <trkpt lat="44.34732" lon="2.5788">
        <ele>517.172</ele>
        <time>2013-01-28T13:41:05Z</time>
      </trkpt>
      <trkpt lat="44.34742" lon="2.57902">
        <ele>514.921</ele>
        <time>2013-01-28T13:41:07Z</time>
      </trkpt>
      <trkpt lat="44.34749" lon="2.57913">
        <ele>515.552</ele>
        <time>2013-01-28T13:41:12Z</time>
      </trkpt>
      <trkpt lat="44.34764" lon="2.58003">
        <ele>510.292</ele>
        <time>2013-01-28T13:41:17Z</time>
      </trkpt>
      <trkpt lat="44.34755" lon="2.57923">
        <ele>506.753</ele>
        <time>2013-01-28T13:41:21Z</time>
      </trkpt>
      <trkpt lat="44.34761" lon="2.57933">
        <ele>501.342</ele>
        <time>2013-01-28T13:41:27Z</time>
      </trkpt>
      <trkpt lat="44.34761" lon="2.57933">
        <ele>500.402</ele>
        <time>2013-01-28T13:41:28Z</time>
      </trkpt>
      <trkpt lat="44.34761" lon="2.57933">
        <ele>503.363</ele>
        <time>2013-01-28T13:41:33Z</time>
      </trkpt>
      <trkpt lat="44.34764" lon="2.58003">
        <ele>505.143</ele>
        <time>2013-01-28T13:41:39Z</time>
      </trkpt>
      <trkpt lat="44.34719" lon="2.58056">
        <ele>556.101</ele>
        <time>2013-01-28T13:41:45Z</time>
      </trkpt>
      <trkpt lat="44.34719" lon="2.58056">
        <ele>606.8</ele>
        <time>2013-01-28T13:41:50Z</time>
      </trkpt>
      <trkpt lat="44.34719" lon="2.58056">
        <ele>613.518</ele>
        <time>2013-01-28T13:41:51Z</time>
      </trkpt>
      <trkpt lat="44.34719" lon="2.58056">
        <ele>632.994</ele>
        <time>2013-01-28T13:41:57Z</time>
      </trkpt>
      <trkpt lat="44.34719" lon="2.58056">
        <ele>638.419</ele>
        <time>2013-01-28T13:41:58Z</time>
      </trkpt>
      <trkpt lat="44.3475" lon="2.58112">
        <ele>666.939</ele>
        <time>2013-01-28T13:42:04Z</time>
      </trkpt>
      <trkpt lat="44.34754" lon="2.5812">
        <ele>667.267</ele>
        <time>2013-01-28T13:42:06Z</time>
      </trkpt>
      <trkpt lat="44.34756" lon="2.58124">
        <ele>681.459</ele>
        <time>2013-01-28T13:42:09Z</time>
      </trkpt>
      <trkpt lat="44.34768" lon="2.58144">
        <ele>698.429</ele>
        <time>2013-01-28T13:42:15Z</time>
      </trkpt>
      <trkpt lat="44.3477" lon="2.58148">
        <ele>698.808</ele>
        <time>2013-01-28T13:42:16Z</time>
      </trkpt>
      <trkpt lat="44.34787" lon="2.58135">
        <ele>690.972</ele>
        <time>2013-01-28T13:42:21Z</time>
      </trkpt>
      <trkpt lat="44.34763" lon="2.58138">
        <ele>672.535</ele>
        <time>2013-01-28T13:42:28Z</time>
      </trkpt>
      <trkpt lat="44.34759" lon="2.58129">
        <ele>675.648</ele>
        <time>2013-01-28T13:42:33Z</time>
      </trkpt>
      <trkpt lat="44.34727" lon="2.58165">
        <ele>660.123</ele>
        <time>2013-01-28T13:42:38Z</time>
      </trkpt>
      <trkpt lat="44.34727" lon="2.58165">
        <ele>659.463</ele>
        <time>2013-01-28T13:42:40Z</time>
      </trkpt>
      <trkpt lat="44.34719" lon="2.58159">
        <ele>659.474</ele>
        <time>2013-01-28T13:42:44Z</time>
      </trkpt>
      <trkpt lat="44.34697" lon="2.58138">
        <ele>659.814</ele>
        <time>2013-01-28T13:42:50Z</time>
      </trkpt>
      <trkpt lat="44.34678" lon="2.58114">
        <ele>657.614</ele>
        <time>2013-01-28T13:42:57Z</time>
      </trkpt>
      <trkpt lat="44.34668" lon="2.58102">
        <ele>653.853</ele>
        <time>2013-01-28T13:43:01Z</time>
      </trkpt>
      <trkpt lat="44.34659" lon="2.58087">
        <ele>651.653</ele>
        <time>2013-01-28T13:43:07Z</time>
      </trkpt>
      <trkpt lat="44.34652" lon="2.58076">
        <ele>633.168</ele>
        <time>2013-01-28T13:43:12Z</time>
      </trkpt>
      <trkpt lat="44.34646" lon="2.58065">
        <ele>624.948</ele>
        <time>2013-01-28T13:43:17Z</time>
      </trkpt>
      <trkpt lat="44.34642" lon="2.58059">
        <ele>627.031</ele>
        <time>2013-01-28T13:43:20Z</time>
      </trkpt>
      <trkpt lat="44.34634" lon="2.58046">
        <ele>636.545</ele>
        <time>2013-01-28T13:43:27Z</time>
      </trkpt>
      <trkpt lat="44.34623" lon="2.58027">
        <ele>635.185</ele>
        <time>2013-01-28T13:43:32Z</time>
      </trkpt>
      <trkpt lat="44.34609" lon="2.58011">
        <ele>630.383</ele>
        <time>2013-01-28T13:43:37Z</time>
      </trkpt>
      <trkpt lat="44.34602" lon="2.58005">
        <ele>623.871</ele>
        <time>2013-01-28T13:43:41Z</time>
      </trkpt>
      <trkpt lat="44.34595" lon="2.57999">
        <ele>606.918</ele>
        <time>2013-01-28T13:43:47Z</time>
      </trkpt>
      <trkpt lat="44.34539" lon="2.5799">
        <ele>596.498</ele>
        <time>2013-01-28T13:43:54Z</time>
      </trkpt>
      <trkpt lat="44.34539" lon="2.57988">
        <ele>597.691</ele>
        <time>2013-01-28T13:44:00Z</time>
      </trkpt>
      <trkpt lat="44.34537" lon="2.57981">
        <ele>601.074</ele>
        <time>2013-01-28T13:44:05Z</time>
      </trkpt>
      <trkpt lat="44.34537" lon="2.57981">
        <ele>600.644</ele>
        <time>2013-01-28T13:44:06Z</time>
      </trkpt>
      <trkpt lat="44.34567" lon="2.57983">
        <ele>606.917</ele>
        <time>2013-01-28T13:44:12Z</time>
      </trkpt>
      <trkpt lat="44.34567" lon="2.57983">
        <ele>605.716</ele>
        <time>2013-01-28T13:44:13Z</time>
      </trkpt>
      <trkpt lat="44.34552" lon="2.58004">
        <ele>611.448</ele>
        <time>2013-01-28T13:44:19Z</time>
      </trkpt>
      <trkpt lat="44.34554" lon="2.58012">
        <ele>621.059</ele>
        <time>2013-01-28T13:44:25Z</time>
      </trkpt>
      <trkpt lat="44.34559" lon="2.58024">
        <ele>618.268</ele>
        <time>2013-01-28T13:44:30Z</time>
      </trkpt>
      <trkpt lat="44.3456" lon="2.58028">
        <ele>613.776</ele>
        <time>2013-01-28T13:44:32Z</time>
      </trkpt>
      <trkpt lat="44.34561" lon="2.58032">
        <ele>605.263</ele>
        <time>2013-01-28T13:44:36Z</time>
      </trkpt>
      <trkpt lat="44.34564" lon="2.58039">
        <ele>600.022</ele>
        <time>2013-01-28T13:44:40Z</time>
      </trkpt>
      <trkpt lat="44.34567" lon="2.58049">
        <ele>578.188</ele>
        <time>2013-01-28T13:44:46Z</time>
      </trkpt>
      <trkpt lat="44.3457" lon="2.58056">
        <ele>545.215</ele>
        <time>2013-01-28T13:44:52Z</time>
      </trkpt>
      <trkpt lat="44.34574" lon="2.58069">
        <ele>530.516</ele>
        <time>2013-01-28T13:44:57Z</time>
      </trkpt>
      <trkpt lat="44.34582" lon="2.5809">
        <ele>525.857</ele>
        <time>2013-01-28T13:45:03Z</time>
      </trkpt>
      <trkpt lat="44.34594" lon="2.58118">
        <ele>527.541</ele>
        <time>2013-01-28T13:45:09Z</time>
      </trkpt>
      <trkpt lat="44.34607" lon="2.5814">
        <ele>539.136</ele>
        <time>2013-01-28T13:45:15Z</time>
      </trkpt>
      <trkpt lat="44.34612" lon="2.58147">
        <ele>548.839</ele>
        <time>2013-01-28T13:45:19Z</time>
      </trkpt>
      <trkpt lat="44.34621" lon="2.58158">
        <ele>553.008</ele>
        <time>2013-01-28T13:45:24Z</time>
      </trkpt>
      <trkpt lat="44.3464" lon="2.58182">
        <ele>560.768</ele>
        <time>2013-01-28T13:45:32Z</time>
      </trkpt>
      <trkpt lat="44.34641" lon="2.58183">
        <ele>560.878</ele>
        <time>2013-01-28T13:45:33Z</time>
      </trkpt>
      <trkpt lat="44.3465" lon="2.58192">
        <ele>543.934</ele>
        <time>2013-01-28T13:45:38Z</time>
      </trkpt>
      <trkpt lat="44.34668" lon="2.58208">
        <ele>539.053</ele>
        <time>2013-01-28T13:45:43Z</time>
      </trkpt>
      <trkpt lat="44.34686" lon="2.58176">
        <ele>517.459</ele>
        <time>2013-01-28T13:45:47Z</time>
      </trkpt>
      <trkpt lat="44.34705" lon="2.5819">
        <ele>490.655</ele>
        <time>2013-01-28T13:45:53Z</time>
      </trkpt>
      <trkpt lat="44.34716" lon="2.58197">
        <ele>488.737</ele>
        <time>2013-01-28T13:45:59Z</time>
      </trkpt>
      <trkpt lat="44.34716" lon="2.58198">
        <ele>485.706</ele>
        <time>2013-01-28T13:46:03Z</time>
      </trkpt>
      <trkpt lat="44.34716" lon="2.58198">
        <ele>487.255</ele>
        <time>2013-01-28T13:46:07Z</time>
      </trkpt>
      <trkpt lat="44.34722" lon="2.58201">
        <ele>488.818</ele>
        <time>2013-01-28T13:46:10Z</time>
      </trkpt>
      <trkpt lat="44.34722" lon="2.58201">
        <ele>483.054</ele>
        <time>2013-01-28T13:46:45Z</time>
      </trkpt>
      <trkpt lat="44.34727" lon="2.58204">
        <ele>478.884</ele>
        <time>2013-01-28T13:46:51Z</time>
      </trkpt>
      <trkpt lat="44.3473" lon="2.58207">
        <ele>482.095</ele>
        <time>2013-01-28T13:46:56Z</time>
      </trkpt>
      <trkpt lat="44.3473" lon="2.58207">
        <ele>483.695</ele>
        <time>2013-01-28T13:47:02Z</time>
      </trkpt>
      <trkpt lat="44.34777" lon="2.58196">
        <ele>475.572</ele>
        <time>2013-01-28T13:47:08Z</time>
      </trkpt>
      <trkpt lat="44.34799" lon="2.58211">
        <ele>476.433</ele>
        <time>2013-01-28T13:47:14Z</time>
      </trkpt>
      <trkpt lat="44.348" lon="2.58244">
        <ele>472.353</ele>
        <time>2013-01-28T13:47:20Z</time>
      </trkpt>
      <trkpt lat="44.34814" lon="2.58251">
        <ele>473.224</ele>
        <time>2013-01-28T13:47:25Z</time>
      </trkpt>
      <trkpt lat="44.34826" lon="2.58257">
        <ele>484.557</ele>
        <time>2013-01-28T13:47:31Z</time>
      </trkpt>
      <trkpt lat="44.3483" lon="2.58259">
        <ele>485.147</ele>
        <time>2013-01-28T13:47:34Z</time>
      </trkpt>
      <trkpt lat="44.34842" lon="2.58265">
        <ele>501.38</ele>
        <time>2013-01-28T13:47:40Z</time>
      </trkpt>
      <trkpt lat="44.34868" lon="2.58242">
        <ele>506.399</ele>
        <time>2013-01-28T13:47:46Z</time>
      </trkpt>
      <trkpt lat="44.34872" lon="2.58242">
        <ele>506.451</ele>
        <time>2013-01-28T13:47:47Z</time>
      </trkpt>
      <trkpt lat="44.34883" lon="2.58241">
        <ele>522.151</ele>
        <time>2013-01-28T13:47:53Z</time>
      </trkpt>
      <trkpt lat="44.34886" lon="2.5824">
        <ele>523.281</ele>
        <time>2013-01-28T13:47:54Z</time>
      </trkpt>
      <trkpt lat="44.349" lon="2.58237">
        <ele>523.31</ele>
        <time>2013-01-28T13:48:01Z</time>
      </trkpt>
      <trkpt lat="44.34907" lon="2.58236">
        <ele>527.05</ele>
        <time>2013-01-28T13:48:04Z</time>
      </trkpt>
      <trkpt lat="44.34916" lon="2.58235">
        <ele>524.958</ele>
        <time>2013-01-28T13:48:10Z</time>
      </trkpt>
      <trkpt lat="44.34918" lon="2.58235">
        <ele>523.999</ele>
        <time>2013-01-28T13:48:11Z</time>
      </trkpt>
      <trkpt lat="44.34935" lon="2.58231">
        <ele>514.397</ele>
        <time>2013-01-28T13:48:19Z</time>
      </trkpt>
      <trkpt lat="44.34952" lon="2.58222">
        <ele>507.867</ele>
        <time>2013-01-28T13:48:26Z</time>
      </trkpt>
      <trkpt lat="44.34962" lon="2.58214">
        <ele>500.175</ele>
        <time>2013-01-28T13:48:31Z</time>
      </trkpt>
      <trkpt lat="44.34976" lon="2.58201">
        <ele>484.913</ele>
        <time>2013-01-28T13:48:37Z</time>
      </trkpt>
      <trkpt lat="44.34992" lon="2.58182">
        <ele>463.95</ele>
        <time>2013-01-28T13:48:45Z</time>
      </trkpt>
      <trkpt lat="44.35007" lon="2.58166">
        <ele>452.192</ele>
        <time>2013-01-28T13:48:51Z</time>
      </trkpt>
      <trkpt lat="44.35023" lon="2.5815">
        <ele>437.382</ele>
        <time>2013-01-28T13:48:58Z</time>
      </trkpt>
      <trkpt lat="44.35037" lon="2.58138">
        <ele>428.353</ele>
        <time>2013-01-28T13:49:04Z</time>
      </trkpt>
      <trkpt lat="44.35056" lon="2.58124">
        <ele>421.914</ele>
        <time>2013-01-28T13:49:11Z</time>
      </trkpt>
      <trkpt lat="44.35069" lon="2.58112">
        <ele>412.895</ele>
        <time>2013-01-28T13:49:17Z</time>
      </trkpt>
      <trkpt lat="44.35084" lon="2.58094">
        <ele>414.507</ele>
        <time>2013-01-28T13:49:23Z</time>
      </trkpt>
      <trkpt lat="44.35097" lon="2.58082">
        <ele>426.829</ele>
        <time>2013-01-28T13:49:29Z</time>
      </trkpt>
      <trkpt lat="44.35111" lon="2.58074">
        <ele>438.621</ele>
        <time>2013-01-28T13:49:35Z</time>
      </trkpt>
      <trkpt lat="44.35119" lon="2.58069">
        <ele>451.861</ele>
        <time>2013-01-28T13:49:40Z</time>
      </trkpt>
      <trkpt lat="44.35124" lon="2.58067">
        <ele>459.25</ele>
        <time>2013-01-28T13:49:45Z</time>
      </trkpt>
      <trkpt lat="44.35153" lon="2.58105">
        <ele>471.602</ele>
        <time>2013-01-28T13:49:51Z</time>
      </trkpt>
      <trkpt lat="44.35158" lon="2.581">
        <ele>479.712</ele>
        <time>2013-01-28T13:49:57Z</time>
      </trkpt>
      <trkpt lat="44.35147" lon="2.58048">
        <ele>492.806</ele>
        <time>2013-01-28T13:50:03Z</time>
      </trkpt>
      <trkpt lat="44.35174" lon="2.58087">
        <ele>510.688</ele>
        <time>2013-01-28T13:50:09Z</time>
      </trkpt>
      <trkpt lat="44.35234" lon="2.58172">
        <ele>531.587</ele>
        <time>2013-01-28T13:50:17Z</time>
      </trkpt>
      <trkpt lat="44.35275" lon="2.58119">
        <ele>550.598</ele>
        <time>2013-01-28T13:50:23Z</time>
      </trkpt>
      <trkpt lat="44.35294" lon="2.58138">
        <ele>568.187</ele>
        <time>2013-01-28T13:50:29Z</time>
      </trkpt>
      <trkpt lat="44.35243" lon="2.58166">
        <ele>572.275</ele>
        <time>2013-01-28T13:50:34Z</time>
      </trkpt>
      <trkpt lat="44.35243" lon="2.58166">
        <ele>574.804</ele>
        <time>2013-01-28T13:50:36Z</time>
      </trkpt>
      <trkpt lat="44.35294" lon="2.58136">
        <ele>582.325</ele>
        <time>2013-01-28T13:50:42Z</time>
      </trkpt>
      <trkpt lat="44.35294" lon="2.58136">
        <ele>539.759</ele>
        <time>2013-01-28T13:50:45Z</time>
      </trkpt>
      <trkpt lat="44.35275" lon="2.58119">
        <ele>510.608</ele>
        <time>2013-01-28T13:50:50Z</time>
      </trkpt>
      <trkpt lat="44.35275" lon="2.58119">
        <ele>471.506</ele>
        <time>2013-01-28T13:50:57Z</time>
      </trkpt>
      <trkpt lat="44.35288" lon="2.58034">
        <ele>465.416</ele>
        <time>2013-01-28T13:51:01Z</time>
      </trkpt>
      <trkpt lat="44.35288" lon="2.58034">
        <ele>448.075</ele>
        <time>2013-01-28T13:51:05Z</time>
      </trkpt>
      <trkpt lat="44.35313" lon="2.58125">
        <ele>453.448</ele>
        <time>2013-01-28T13:51:11Z</time>
      </trkpt>
      <trkpt lat="44.35303" lon="2.58129">
        <ele>472.174</ele>
        <time>2013-01-28T13:51:17Z</time>
      </trkpt>
      <trkpt lat="44.35298" lon="2.58133">
        <ele>481.603</ele>
        <time>2013-01-28T13:51:23Z</time>
      </trkpt>
      <trkpt lat="44.35297" lon="2.58134">
        <ele>487.448</ele>
        <time>2013-01-28T13:51:27Z</time>
      </trkpt>
      <trkpt lat="44.35275" lon="2.58119">
        <ele>496.385</ele>
        <time>2013-01-28T13:51:30Z</time>
      </trkpt>
      <trkpt lat="44.35275" lon="2.58119">
        <ele>508.464</ele>
        <time>2013-01-28T13:51:35Z</time>
      </trkpt>
      <trkpt lat="44.35275" lon="2.58119">
        <ele>510.546</ele>
        <time>2013-01-28T13:51:37Z</time>
      </trkpt>
      <trkpt lat="44.35277" lon="2.58122">
        <ele>518.846</ele>
        <time>2013-01-28T13:51:41Z</time>
      </trkpt>
      <trkpt lat="44.35294" lon="2.58138">
        <ele>525.102</ele>
        <time>2013-01-28T13:51:48Z</time>
      </trkpt>
      <trkpt lat="44.35294" lon="2.58138">
        <ele>533.784</ele>
        <time>2013-01-28T13:51:51Z</time>
      </trkpt>
      <trkpt lat="44.35278" lon="2.58165">
        <ele>546.206</ele>
        <time>2013-01-28T13:51:59Z</time>
      </trkpt>
      <trkpt lat="44.35271" lon="2.58169">
        <ele>557.575</ele>
        <time>2013-01-28T13:52:04Z</time>
      </trkpt>
      <trkpt lat="44.35307" lon="2.58203">
        <ele>559.565</ele>
        <time>2013-01-28T13:52:05Z</time>
      </trkpt>
      <trkpt lat="44.35298" lon="2.58233">
        <ele>569.035</ele>
        <time>2013-01-28T13:52:11Z</time>
      </trkpt>
      <trkpt lat="44.3529" lon="2.58254">
        <ele>577.196</ele>
        <time>2013-01-28T13:52:18Z</time>
      </trkpt>
      <trkpt lat="44.35286" lon="2.58265">
        <ele>579.883</ele>
        <time>2013-01-28T13:52:23Z</time>
      </trkpt>
      <trkpt lat="44.35284" lon="2.58285">
        <ele>584.734</ele>
        <time>2013-01-28T13:52:30Z</time>
      </trkpt>
      <trkpt lat="44.35283" lon="2.58304">
        <ele>587.743</ele>
        <time>2013-01-28T13:52:35Z</time>
      </trkpt>
      <trkpt lat="44.35279" lon="2.58324">
        <ele>590.532</ele>
        <time>2013-01-28T13:52:40Z</time>
      </trkpt>
      <trkpt lat="44.35274" lon="2.58341">
        <ele>596.405</ele>
        <time>2013-01-28T13:52:46Z</time>
      </trkpt>
      <trkpt lat="44.35266" lon="2.58368">
        <ele>598.264</ele>
        <time>2013-01-28T13:52:53Z</time>
      </trkpt>
      <trkpt lat="44.35256" lon="2.58392">
        <ele>597.942</ele>
        <time>2013-01-28T13:53:00Z</time>
      </trkpt>
      <trkpt lat="44.35251" lon="2.58405">
        <ele>601.362</ele>
        <time>2013-01-28T13:53:05Z</time>
      </trkpt>
      <trkpt lat="44.35247" lon="2.58416">
        <ele>605.793</ele>
        <time>2013-01-28T13:53:10Z</time>
      </trkpt>
      <trkpt lat="44.35238" lon="2.58437">
        <ele>631.207</ele>
        <time>2013-01-28T13:53:17Z</time>
      </trkpt>
      <trkpt lat="44.35232" lon="2.58452">
        <ele>661.15</ele>
        <time>2013-01-28T13:53:24Z</time>
      </trkpt>
      <trkpt lat="44.35226" lon="2.58465">
        <ele>690.915</ele>
        <time>2013-01-28T13:53:30Z</time>
      </trkpt>
      <trkpt lat="44.35226" lon="2.58467">
        <ele>694.125</ele>
        <time>2013-01-28T13:53:31Z</time>
      </trkpt>
      <trkpt lat="44.35223" lon="2.58474">
        <ele>704.434</ele>
        <time>2013-01-28T13:53:35Z</time>
      </trkpt>
      <trkpt lat="44.35219" lon="2.58481">
        <ele>720.359</ele>
        <time>2013-01-28T13:53:41Z</time>
      </trkpt>
      <trkpt lat="44.35218" lon="2.58484">
        <ele>728.563</ele>
        <time>2013-01-28T13:53:43Z</time>
      </trkpt>
      <trkpt lat="44.35216" lon="2.58487">
        <ele>739.8</ele>
        <time>2013-01-28T13:53:47Z</time>
      </trkpt>
      <trkpt lat="44.35212" lon="2.58494">
        <ele>750.542</ele>
        <time>2013-01-28T13:53:51Z</time>
      </trkpt>
      <trkpt lat="44.35203" lon="2.5851">
        <ele>758.748</ele>
        <time>2013-01-28T13:53:57Z</time>
      </trkpt>
      <trkpt lat="44.352" lon="2.58519">
        <ele>758.927</ele>
        <time>2013-01-28T13:54:00Z</time>
      </trkpt>
      <trkpt lat="44.35197" lon="2.58525">
        <ele>761.967</ele>
        <time>2013-01-28T13:54:02Z</time>
      </trkpt>
      <trkpt lat="44.35193" lon="2.58535">
        <ele>772.911</ele>
        <time>2013-01-28T13:54:06Z</time>
      </trkpt>
      <trkpt lat="44.35184" lon="2.58557">
        <ele>776.558</ele>
        <time>2013-01-28T13:54:13Z</time>
      </trkpt>
      <trkpt lat="44.35177" lon="2.58575">
        <ele>778.039</ele>
        <time>2013-01-28T13:54:19Z</time>
      </trkpt>
      <trkpt lat="44.35171" lon="2.58593">
        <ele>780.244</ele>
        <time>2013-01-28T13:54:24Z</time>
      </trkpt>
      <trkpt lat="44.35162" lon="2.58618">
        <ele>776.263</ele>
        <time>2013-01-28T13:54:31Z</time>
      </trkpt>
      <trkpt lat="44.35156" lon="2.58636">
        <ele>773.773</ele>
        <time>2013-01-28T13:54:37Z</time>
      </trkpt>
      <trkpt lat="44.3515" lon="2.58653">
        <ele>775.273</ele>
        <time>2013-01-28T13:54:42Z</time>
      </trkpt>
      <trkpt lat="44.35143" lon="2.58671">
        <ele>771.553</ele>
        <time>2013-01-28T13:54:49Z</time>
      </trkpt>
      <trkpt lat="44.35137" lon="2.58686">
        <ele>763.221</ele>
        <time>2013-01-28T13:54:54Z</time>
      </trkpt>
      <trkpt lat="44.35133" lon="2.58696">
        <ele>758.041</ele>
        <time>2013-01-28T13:54:58Z</time>
      </trkpt>
      <trkpt lat="44.35132" lon="2.58699">
        <ele>756.19</ele>
        <time>2013-01-28T13:54:59Z</time>
      </trkpt>
      <trkpt lat="44.35123" lon="2.58724">
        <ele>758.031</ele>
        <time>2013-01-28T13:55:06Z</time>
      </trkpt>
      <trkpt lat="44.35118" lon="2.58735">
        <ele>760.853</ele>
        <time>2013-01-28T13:55:10Z</time>
      </trkpt>
      <trkpt lat="44.35117" lon="2.58739">
        <ele>765.515</ele>
        <time>2013-01-28T13:55:15Z</time>
      </trkpt>
      <trkpt lat="44.35106" lon="2.58759">
        <ele>778.525</ele>
        <time>2013-01-28T13:55:25Z</time>
      </trkpt>
      <trkpt lat="44.351" lon="2.58772">
        <ele>782.306</ele>
        <time>2013-01-28T13:55:31Z</time>
      </trkpt>
      <trkpt lat="44.35099" lon="2.58775">
        <ele>783.327</ele>
        <time>2013-01-28T13:55:32Z</time>
      </trkpt>
      <trkpt lat="44.3509" lon="2.58797">
        <ele>784.965</ele>
        <time>2013-01-28T13:55:39Z</time>
      </trkpt>
      <trkpt lat="44.35128" lon="2.58825">
        <ele>779.713</ele>
        <time>2013-01-28T13:55:45Z</time>
      </trkpt>
      <trkpt lat="44.35071" lon="2.58859">
        <ele>774.212</ele>
        <time>2013-01-28T13:55:52Z</time>
      </trkpt>
      <trkpt lat="44.35071" lon="2.58859">
        <ele>772.951</ele>
        <time>2013-01-28T13:55:57Z</time>
      </trkpt>
      <trkpt lat="44.35071" lon="2.58859">
        <ele>773.133</ele>
        <time>2013-01-28T13:56:00Z</time>
      </trkpt>
      <trkpt lat="44.35071" lon="2.58859">
        <ele>770.492</ele>
        <time>2013-01-28T13:56:04Z</time>
      </trkpt>
      <trkpt lat="44.35071" lon="2.58859">
        <ele>767.812</ele>
        <time>2013-01-28T13:56:11Z</time>
      </trkpt>
      <trkpt lat="44.35071" lon="2.58859">
        <ele>766.553</ele>
        <time>2013-01-28T13:56:15Z</time>
      </trkpt>
      <trkpt lat="44.35052" lon="2.58951">
        <ele>764.645</ele>
        <time>2013-01-28T13:56:21Z</time>
      </trkpt>
      <trkpt lat="44.35048" lon="2.58968">
        <ele>759.233</ele>
        <time>2013-01-28T13:56:26Z</time>
      </trkpt>
      <trkpt lat="44.35042" lon="2.58988">
        <ele>761.252</ele>
        <time>2013-01-28T13:56:32Z</time>
      </trkpt>
      <trkpt lat="44.35041" lon="2.58991">
        <ele>761.753</ele>
        <time>2013-01-28T13:56:33Z</time>
      </trkpt>
      <trkpt lat="44.35033" lon="2.59004">
        <ele>762.022</ele>
        <time>2013-01-28T13:56:40Z</time>
      </trkpt>
      <trkpt lat="44.3503" lon="2.59008">
        <ele>764.273</ele>
        <time>2013-01-28T13:56:43Z</time>
      </trkpt>
      <trkpt lat="44.34981" lon="2.58986">
        <ele>763.464</ele>
        <time>2013-01-28T13:56:46Z</time>
      </trkpt>
      <trkpt lat="44.35067" lon="2.59106">
        <ele>768.235</ele>
        <time>2013-01-28T13:56:53Z</time>
      </trkpt>
      <trkpt lat="44.35066" lon="2.59107">
        <ele>770.734</ele>
        <time>2013-01-28T13:56:54Z</time>
      </trkpt>
      <trkpt lat="44.35057" lon="2.59119">
        <ele>782.848</ele>
        <time>2013-01-28T13:57:01Z</time>
      </trkpt>
      <trkpt lat="44.3505" lon="2.59129">
        <ele>790.81</ele>
        <time>2013-01-28T13:57:07Z</time>
      </trkpt>
      <trkpt lat="44.34986" lon="2.59068">
        <ele>793.51</ele>
        <time>2013-01-28T13:57:08Z</time>
      </trkpt>
      <trkpt lat="44.34978" lon="2.5909">
        <ele>811.713</ele>
        <time>2013-01-28T13:57:14Z</time>
      </trkpt>
      <trkpt lat="44.34978" lon="2.59092">
        <ele>813.512</ele>
        <time>2013-01-28T13:57:15Z</time>
      </trkpt>
      <trkpt lat="44.34976" lon="2.59097">
        <ele>818.531</ele>
        <time>2013-01-28T13:57:18Z</time>
      </trkpt>
      <trkpt lat="44.35036" lon="2.59152">
        <ele>831.332</ele>
        <time>2013-01-28T13:57:23Z</time>
      </trkpt>
      <trkpt lat="44.35031" lon="2.59161">
        <ele>846.743</ele>
        <time>2013-01-28T13:57:28Z</time>
      </trkpt>
      <trkpt lat="44.35024" lon="2.59172">
        <ele>863.782</ele>
        <time>2013-01-28T13:57:35Z</time>
      </trkpt>
      <trkpt lat="44.35023" lon="2.59174">
        <ele>869.273</ele>
        <time>2013-01-28T13:57:37Z</time>
      </trkpt>
      <trkpt lat="44.3502" lon="2.5918">
        <ele>886.604</ele>
        <time>2013-01-28T13:57:42Z</time>
      </trkpt>
      <trkpt lat="44.35015" lon="2.59188">
        <ele>903.934</ele>
        <time>2013-01-28T13:57:48Z</time>
      </trkpt>
      <trkpt lat="44.35015" lon="2.59188">
        <ele>908.195</ele>
        <time>2013-01-28T13:57:49Z</time>
      </trkpt>
      <trkpt lat="44.35005" lon="2.59204">
        <ele>934.238</ele>
        <time>2013-01-28T13:57:55Z</time>
      </trkpt>
      <trkpt lat="44.35003" lon="2.5921">
        <ele>946.118</ele>
        <time>2013-01-28T13:57:58Z</time>
      </trkpt>
      <trkpt lat="44.35001" lon="2.59219">
        <ele>969.808</ele>
        <time>2013-01-28T13:58:04Z</time>
      </trkpt>
      <trkpt lat="44.35008" lon="2.59229">
        <ele>981.708</ele>
        <time>2013-01-28T13:58:07Z</time>
      </trkpt>
      <trkpt lat="44.34997" lon="2.59234">
        <ele>1001.268</ele>
        <time>2013-01-28T13:58:12Z</time>
      </trkpt>
      <trkpt lat="44.34996" lon="2.59237">
        <ele>1006.291</ele>
        <time>2013-01-28T13:58:14Z</time>
      </trkpt>
      <trkpt lat="44.34994" lon="2.59246">
        <ele>1025.018</ele>
        <time>2013-01-28T13:58:19Z</time>
      </trkpt>
      <trkpt lat="44.3499" lon="2.59258">
        <ele>1042.642</ele>
        <time>2013-01-28T13:58:26Z</time>
      </trkpt>
      <trkpt lat="44.34989" lon="2.59265">
        <ele>1053.135</ele>
        <time>2013-01-28T13:58:30Z</time>
      </trkpt>
      <trkpt lat="44.35123" lon="2.5935">
        <ele>1073.273</ele>
        <time>2013-01-28T13:58:39Z</time>
      </trkpt>
      <trkpt lat="44.35123" lon="2.5935">
        <ele>1098.215</ele>
        <time>2013-01-28T13:58:46Z</time>
      </trkpt>
      <trkpt lat="44.35123" lon="2.5935">
        <ele>1115.815</ele>
        <time>2013-01-28T13:58:53Z</time>
      </trkpt>
      <trkpt lat="44.35123" lon="2.5935">
        <ele>1129.114</ele>
        <time>2013-01-28T13:58:59Z</time>
      </trkpt>
      <trkpt lat="44.35086" lon="2.59376">
        <ele>1142.025</ele>
        <time>2013-01-28T13:59:03Z</time>
      </trkpt>
      <trkpt lat="44.35125" lon="2.59357">
        <ele>1159.626</ele>
        <time>2013-01-28T13:59:09Z</time>
      </trkpt>
      <trkpt lat="44.35125" lon="2.59357">
        <ele>1164.504</ele>
        <time>2013-01-28T13:59:15Z</time>
      </trkpt>
      <trkpt lat="44.35125" lon="2.59357">
        <ele>1166.265</ele>
        <time>2013-01-28T13:59:21Z</time>
      </trkpt>
      <trkpt lat="44.35125" lon="2.59357">
        <ele>1169.195</ele>
        <time>2013-01-28T13:59:23Z</time>
      </trkpt>
      <trkpt lat="44.35125" lon="2.59357">
        <ele>1153.196</ele>
        <time>2013-01-28T13:59:29Z</time>
      </trkpt>
      <trkpt lat="44.35125" lon="2.59357">
        <ele>1142.703</ele>
        <time>2013-01-28T13:59:33Z</time>
      </trkpt>
      <trkpt lat="44.35125" lon="2.59357">
        <ele>1131.451</ele>
        <time>2013-01-28T13:59:37Z</time>
      </trkpt>
      <trkpt lat="44.35125" lon="2.59357">
        <ele>1118.271</ele>
        <time>2013-01-28T13:59:45Z</time>
      </trkpt>
      <trkpt lat="44.35082" lon="2.59395">
        <ele>1115.771</ele>
        <time>2013-01-28T13:59:48Z</time>
      </trkpt>
      <trkpt lat="44.35167" lon="2.5956">
        <ele>1099.93</ele>
        <time>2013-01-28T13:59:54Z</time>
      </trkpt>
      <trkpt lat="44.35167" lon="2.5956">
        <ele>1038.128</ele>
        <time>2013-01-28T13:59:57Z</time>
      </trkpt>
      <trkpt lat="44.3505" lon="2.59687">
        <ele>741.07</ele>
        <time>2013-01-28T14:00:05Z</time>
      </trkpt>
      <trkpt lat="44.3505" lon="2.59687">
        <ele>728.419</ele>
        <time>2013-01-28T14:00:09Z</time>
      </trkpt>
      <trkpt lat="44.35064" lon="2.59685">
        <ele>728.654</ele>
        <time>2013-01-28T14:00:15Z</time>
      </trkpt>
      <trkpt lat="44.35072" lon="2.59681">
        <ele>727.127</ele>
        <time>2013-01-28T14:00:21Z</time>
      </trkpt>
      <trkpt lat="44.35081" lon="2.59676">
        <ele>723.037</ele>
        <time>2013-01-28T14:00:27Z</time>
      </trkpt>
      <trkpt lat="44.35084" lon="2.59674">
        <ele>717.238</ele>
        <time>2013-01-28T14:00:33Z</time>
      </trkpt>
      <trkpt lat="44.35084" lon="2.59674">
        <ele>716.988</ele>
        <time>2013-01-28T14:00:34Z</time>
      </trkpt>
      <trkpt lat="44.35113" lon="2.59715">
        <ele>729.613</ele>
        <time>2013-01-28T14:00:42Z</time>
      </trkpt>
      <trkpt lat="44.35113" lon="2.59715">
        <ele>731.993</ele>
        <time>2013-01-28T14:00:47Z</time>
      </trkpt>
      <trkpt lat="44.35118" lon="2.5971">
        <ele>720.297</ele>
        <time>2013-01-28T14:00:51Z</time>
      </trkpt>
      <trkpt lat="44.35126" lon="2.597">
        <ele>664.151</ele>
        <time>2013-01-28T14:01:00Z</time>
      </trkpt>
      <trkpt lat="44.35127" lon="2.597">
        <ele>654.449</ele>
        <time>2013-01-28T14:01:01Z</time>
      </trkpt>
      <trkpt lat="44.35134" lon="2.59692">
        <ele>637.324</ele>
        <time>2013-01-28T14:01:08Z</time>
      </trkpt>
      <trkpt lat="44.35119" lon="2.59639">
        <ele>657.04</ele>
        <time>2013-01-28T14:01:15Z</time>
      </trkpt>
      <trkpt lat="44.35125" lon="2.5963">
        <ele>678.464</ele>
        <time>2013-01-28T14:01:21Z</time>
      </trkpt>
      <trkpt lat="44.35133" lon="2.59617">
        <ele>699.017</ele>
        <time>2013-01-28T14:01:28Z</time>
      </trkpt>
      <trkpt lat="44.35134" lon="2.59615">
        <ele>702.017</ele>
        <time>2013-01-28T14:01:29Z</time>
      </trkpt>
      <trkpt lat="44.35138" lon="2.59607">
        <ele>721.009</ele>
        <time>2013-01-28T14:01:35Z</time>
      </trkpt>
      <trkpt lat="44.35139" lon="2.59606">
        <ele>725.79</ele>
        <time>2013-01-28T14:01:36Z</time>
      </trkpt>
      <trkpt lat="44.35141" lon="2.59604">
        <ele>743.402</ele>
        <time>2013-01-28T14:01:40Z</time>
      </trkpt>
      <trkpt lat="44.35175" lon="2.59644">
        <ele>764.734</ele>
        <time>2013-01-28T14:01:45Z</time>
      </trkpt>
      <trkpt lat="44.35178" lon="2.59641">
        <ele>773.191</ele>
        <time>2013-01-28T14:01:51Z</time>
      </trkpt>
      <trkpt lat="44.35187" lon="2.59631">
        <ele>777.398</ele>
        <time>2013-01-28T14:01:59Z</time>
      </trkpt>
      <trkpt lat="44.35194" lon="2.59623">
        <ele>790.918</ele>
        <time>2013-01-28T14:02:05Z</time>
      </trkpt>
      <trkpt lat="44.35207" lon="2.59609">
        <ele>809.809</ele>
        <time>2013-01-28T14:02:13Z</time>
      </trkpt>
      <trkpt lat="44.35209" lon="2.59607">
        <ele>809.228</ele>
        <time>2013-01-28T14:02:14Z</time>
      </trkpt>
      <trkpt lat="44.35224" lon="2.59588">
        <ele>817.577</ele>
        <time>2013-01-28T14:02:23Z</time>
      </trkpt>
      <trkpt lat="44.35232" lon="2.59575">
        <ele>817.826</ele>
        <time>2013-01-28T14:02:28Z</time>
      </trkpt>
      <trkpt lat="44.35243" lon="2.59557">
        <ele>814.693</ele>
        <time>2013-01-28T14:02:34Z</time>
      </trkpt>
      <trkpt lat="44.35254" lon="2.5954">
        <ele>807.591</ele>
        <time>2013-01-28T14:02:40Z</time>
      </trkpt>
      <trkpt lat="44.35268" lon="2.59524">
        <ele>792.748</ele>
        <time>2013-01-28T14:02:47Z</time>
      </trkpt>
      <trkpt lat="44.35275" lon="2.59516">
        <ele>777.107</ele>
        <time>2013-01-28T14:02:53Z</time>
      </trkpt>
      <trkpt lat="44.35291" lon="2.59501">
        <ele>751.095</ele>
        <time>2013-01-28T14:02:59Z</time>
      </trkpt>
      <trkpt lat="44.35309" lon="2.5948">
        <ele>716.372</ele>
        <time>2013-01-28T14:03:05Z</time>
      </trkpt>
      <trkpt lat="44.35326" lon="2.59459">
        <ele>680.789</ele>
        <time>2013-01-28T14:03:10Z</time>
      </trkpt>
      <trkpt lat="44.3534" lon="2.5944">
        <ele>646.556</ele>
        <time>2013-01-28T14:03:15Z</time>
      </trkpt>
      <trkpt lat="44.35361" lon="2.59413">
        <ele>616.574</ele>
        <time>2013-01-28T14:03:20Z</time>
      </trkpt>
      <trkpt lat="44.35376" lon="2.59393">
        <ele>592.868</ele>
        <time>2013-01-28T14:03:25Z</time>
      </trkpt>
      <trkpt lat="44.35394" lon="2.59373">
        <ele>581.899</ele>
        <time>2013-01-28T14:03:31Z</time>
      </trkpt>
      <trkpt lat="44.35415" lon="2.5935">
        <ele>567.331</ele>
        <time>2013-01-28T14:03:37Z</time>
      </trkpt>
      <trkpt lat="44.35429" lon="2.59337">
        <ele>569.805</ele>
        <time>2013-01-28T14:03:42Z</time>
      </trkpt>
      <trkpt lat="44.35443" lon="2.59328">
        <ele>562.536</ele>
        <time>2013-01-28T14:03:48Z</time>
      </trkpt>
      <trkpt lat="44.3546" lon="2.59314">
        <ele>548.634</ele>
        <time>2013-01-28T14:03:53Z</time>
      </trkpt>
      <trkpt lat="44.35477" lon="2.59301">
        <ele>548.766</ele>
        <time>2013-01-28T14:03:59Z</time>
      </trkpt>
      <trkpt lat="44.35495" lon="2.59296">
        <ele>528.643</ele>
        <time>2013-01-28T14:04:04Z</time>
      </trkpt>
      <trkpt lat="44.35508" lon="2.59295">
        <ele>511.431</ele>
        <time>2013-01-28T14:04:11Z</time>
      </trkpt>
      <trkpt lat="44.35518" lon="2.59301">
        <ele>500.261</ele>
        <time>2013-01-28T14:04:16Z</time>
      </trkpt>
      <trkpt lat="44.35527" lon="2.59306">
        <ele>490.52</ele>
        <time>2013-01-28T14:04:21Z</time>
      </trkpt>
      <trkpt lat="44.35537" lon="2.59313">
        <ele>485.131</ele>
        <time>2013-01-28T14:04:27Z</time>
      </trkpt>
      <trkpt lat="44.35548" lon="2.59324">
        <ele>478.134</ele>
        <time>2013-01-28T14:04:34Z</time>
      </trkpt>
      <trkpt lat="44.35549" lon="2.59325">
        <ele>484.106</ele>
        <time>2013-01-28T14:04:36Z</time>
      </trkpt>
      <trkpt lat="44.35554" lon="2.59334">
        <ele>488.218</ele>
        <time>2013-01-28T14:04:40Z</time>
      </trkpt>
      <trkpt lat="44.35556" lon="2.59338">
        <ele>486.598</ele>
        <time>2013-01-28T14:04:42Z</time>
      </trkpt>
      <trkpt lat="44.35561" lon="2.59346">
        <ele>484.638</ele>
        <time>2013-01-28T14:04:48Z</time>
      </trkpt>
      <trkpt lat="44.35567" lon="2.59355">
        <ele>486.369</ele>
        <time>2013-01-28T14:04:51Z</time>
      </trkpt>
      <trkpt lat="44.35576" lon="2.5937">
        <ele>496.362</ele>
        <time>2013-01-28T14:04:58Z</time>
      </trkpt>
      <trkpt lat="44.3558" lon="2.59376">
        <ele>501.824</ele>
        <time>2013-01-28T14:05:01Z</time>
      </trkpt>
      <trkpt lat="44.35587" lon="2.59389">
        <ele>503.464</ele>
        <time>2013-01-28T14:05:07Z</time>
      </trkpt>
      <trkpt lat="44.35593" lon="2.59401">
        <ele>519.376</ele>
        <time>2013-01-28T14:05:14Z</time>
      </trkpt>
      <trkpt lat="44.35595" lon="2.59405">
        <ele>521.637</ele>
        <time>2013-01-28T14:05:15Z</time>
      </trkpt>
      <trkpt lat="44.35603" lon="2.59427">
        <ele>529.155</ele>
        <time>2013-01-28T14:05:24Z</time>
      </trkpt>
      <trkpt lat="44.35611" lon="2.59454">
        <ele>517.661</ele>
        <time>2013-01-28T14:05:32Z</time>
      </trkpt>
      <trkpt lat="44.35615" lon="2.59473">
        <ele>523.792</ele>
        <time>2013-01-28T14:05:38Z</time>
      </trkpt>
      <trkpt lat="44.35615" lon="2.59477">
        <ele>524.302</ele>
        <time>2013-01-28T14:05:39Z</time>
      </trkpt>
      <trkpt lat="44.3562" lon="2.595">
        <ele>527.952</ele>
        <time>2013-01-28T14:05:46Z</time>
      </trkpt>
      <trkpt lat="44.35625" lon="2.59523">
        <ele>524.591</ele>
        <time>2013-01-28T14:05:52Z</time>
      </trkpt>
      <trkpt lat="44.35628" lon="2.59538">
        <ele>531.533</ele>
        <time>2013-01-28T14:05:57Z</time>
      </trkpt>
      <trkpt lat="44.3563" lon="2.59558">
        <ele>535.893</ele>
        <time>2013-01-28T14:06:02Z</time>
      </trkpt>
      <trkpt lat="44.35631" lon="2.59562">
        <ele>537.323</ele>
        <time>2013-01-28T14:06:03Z</time>
      </trkpt>
      <trkpt lat="44.35632" lon="2.59571">
        <ele>536.764</ele>
        <time>2013-01-28T14:06:05Z</time>
      </trkpt>
      <trkpt lat="44.35633" lon="2.59584">
        <ele>532.223</ele>
        <time>2013-01-28T14:06:09Z</time>
      </trkpt>
      <trkpt lat="44.35636" lon="2.59605">
        <ele>538.754</ele>
        <time>2013-01-28T14:06:15Z</time>
      </trkpt>
      <trkpt lat="44.35637" lon="2.59613">
        <ele>541.324</ele>
        <time>2013-01-28T14:06:17Z</time>
      </trkpt>
      <trkpt lat="44.35638" lon="2.59623">
        <ele>540.894</ele>
        <time>2013-01-28T14:06:19Z</time>
      </trkpt>
      <trkpt lat="44.35638" lon="2.59637">
        <ele>543.104</ele>
        <time>2013-01-28T14:06:23Z</time>
      </trkpt>
      <trkpt lat="44.35644" lon="2.59709">
        <ele>551.826</ele>
        <time>2013-01-28T14:06:30Z</time>
      </trkpt>
      <trkpt lat="44.35644" lon="2.59709">
        <ele>551.494</ele>
        <time>2013-01-28T14:06:33Z</time>
      </trkpt>
      <trkpt lat="44.35638" lon="2.59661">
        <ele>558.915</ele>
        <time>2013-01-28T14:06:40Z</time>
      </trkpt>
      <trkpt lat="44.35638" lon="2.59669">
        <ele>558.494</ele>
        <time>2013-01-28T14:06:41Z</time>
      </trkpt>
      <trkpt lat="44.35639" lon="2.59678">
        <ele>572.856</ele>
        <time>2013-01-28T14:06:48Z</time>
      </trkpt>
      <trkpt lat="44.3564" lon="2.59688">
        <ele>579.426</ele>
        <time>2013-01-28T14:06:54Z</time>
      </trkpt>
      <trkpt lat="44.3564" lon="2.59689">
        <ele>578.935</ele>
        <time>2013-01-28T14:06:59Z</time>
      </trkpt>
      <trkpt lat="44.3564" lon="2.59689">
        <ele>585.398</ele>
        <time>2013-01-28T14:07:06Z</time>
      </trkpt>
      <trkpt lat="44.3564" lon="2.59689">
        <ele>580.565</ele>
        <time>2013-01-28T14:07:12Z</time>
      </trkpt>
      <trkpt lat="44.35581" lon="2.59771">
        <ele>590.247</ele>
        <time>2013-01-28T14:07:19Z</time>
      </trkpt>
      <trkpt lat="44.35581" lon="2.59771">
        <ele>594.546</ele>
        <time>2013-01-28T14:07:25Z</time>
      </trkpt>
      <trkpt lat="44.35574" lon="2.59776">
        <ele>595.596</ele>
        <time>2013-01-28T14:07:31Z</time>
      </trkpt>
      <trkpt lat="44.35565" lon="2.59783">
        <ele>599.257</ele>
        <time>2013-01-28T14:07:34Z</time>
      </trkpt>
      <trkpt lat="44.3556" lon="2.59787">
        <ele>606.456</ele>
        <time>2013-01-28T14:07:41Z</time>
      </trkpt>
      <trkpt lat="44.35548" lon="2.59796">
        <ele>613.567</ele>
        <time>2013-01-28T14:07:49Z</time>
      </trkpt>
      <trkpt lat="44.35548" lon="2.59796">
        <ele>612.595</ele>
        <time>2013-01-28T14:07:54Z</time>
      </trkpt>
      <trkpt lat="44.35548" lon="2.59796">
        <ele>613.724</ele>
        <time>2013-01-28T14:07:58Z</time>
      </trkpt>
      <trkpt lat="44.35528" lon="2.59808">
        <ele>604.475</ele>
        <time>2013-01-28T14:08:07Z</time>
      </trkpt>
      <trkpt lat="44.35528" lon="2.59808">
        <ele>605.344</ele>
        <time>2013-01-28T14:08:12Z</time>
      </trkpt>
      <trkpt lat="44.35528" lon="2.59808">
        <ele>609.936</ele>
        <time>2013-01-28T14:08:14Z</time>
      </trkpt>
      <trkpt lat="44.35509" lon="2.59781">
        <ele>622.438</ele>
        <time>2013-01-28T14:08:21Z</time>
      </trkpt>
      <trkpt lat="44.35508" lon="2.59784">
        <ele>624.788</ele>
        <time>2013-01-28T14:08:23Z</time>
      </trkpt>
      <trkpt lat="44.35507" lon="2.5979">
        <ele>625.166</ele>
        <time>2013-01-28T14:08:25Z</time>
      </trkpt>
      <trkpt lat="44.35503" lon="2.59806">
        <ele>617.844</ele>
        <time>2013-01-28T14:08:32Z</time>
      </trkpt>
      <trkpt lat="44.355" lon="2.5982">
        <ele>613.953</ele>
        <time>2013-01-28T14:08:38Z</time>
      </trkpt>
      <trkpt lat="44.35498" lon="2.59829">
        <ele>617.513</ele>
        <time>2013-01-28T14:08:45Z</time>
      </trkpt>
      <trkpt lat="44.35481" lon="2.59853">
        <ele>622.394</ele>
        <time>2013-01-28T14:08:52Z</time>
      </trkpt>
      <trkpt lat="44.35478" lon="2.59861">
        <ele>616.323</ele>
        <time>2013-01-28T14:08:56Z</time>
      </trkpt>
      <trkpt lat="44.35468" lon="2.59881">
        <ele>622.775</ele>
        <time>2013-01-28T14:09:02Z</time>
      </trkpt>
      <trkpt lat="44.35462" lon="2.59891">
        <ele>624.234</ele>
        <time>2013-01-28T14:09:08Z</time>
      </trkpt>
      <trkpt lat="44.35457" lon="2.59898">
        <ele>624.254</ele>
        <time>2013-01-28T14:09:11Z</time>
      </trkpt>
      <trkpt lat="44.35456" lon="2.599">
        <ele>631.805</ele>
        <time>2013-01-28T14:09:18Z</time>
      </trkpt>
      <trkpt lat="44.35425" lon="2.59875">
        <ele>636.616</ele>
        <time>2013-01-28T14:09:20Z</time>
      </trkpt>
      <trkpt lat="44.35439" lon="2.59919">
        <ele>646.147</ele>
        <time>2013-01-28T14:09:27Z</time>
      </trkpt>
      <trkpt lat="44.35434" lon="2.59924">
        <ele>650.907</ele>
        <time>2013-01-28T14:09:33Z</time>
      </trkpt>
      <trkpt lat="44.35434" lon="2.59924">
        <ele>656.176</ele>
        <time>2013-01-28T14:09:39Z</time>
      </trkpt>
      <trkpt lat="44.35426" lon="2.59931">
        <ele>656.476</ele>
        <time>2013-01-28T14:09:41Z</time>
      </trkpt>
      <trkpt lat="44.35413" lon="2.59942">
        <ele>660.898</ele>
        <time>2013-01-28T14:09:48Z</time>
      </trkpt>
      <trkpt lat="44.35405" lon="2.5995">
        <ele>662.857</ele>
        <time>2013-01-28T14:09:54Z</time>
      </trkpt>
      <trkpt lat="44.35403" lon="2.59953">
        <ele>658.905</ele>
        <time>2013-01-28T14:09:58Z</time>
      </trkpt>
      <trkpt lat="44.35393" lon="2.59965">
        <ele>661.287</ele>
        <time>2013-01-28T14:10:05Z</time>
      </trkpt>
      <trkpt lat="44.35382" lon="2.59978">
        <ele>651.652</ele>
        <time>2013-01-28T14:10:12Z</time>
      </trkpt>
      <trkpt lat="44.35376" lon="2.59986">
        <ele>639.279</ele>
        <time>2013-01-28T14:10:18Z</time>
      </trkpt>
      <trkpt lat="44.35366" lon="2.60002">
        <ele>625.827</ele>
        <time>2013-01-28T14:10:25Z</time>
      </trkpt>
      <trkpt lat="44.35358" lon="2.60015">
        <ele>644.623</ele>
        <time>2013-01-28T14:10:33Z</time>
      </trkpt>
      <trkpt lat="44.35358" lon="2.60015">
        <ele>647.604</ele>
        <time>2013-01-28T14:10:34Z</time>
      </trkpt>
      <trkpt lat="44.35352" lon="2.60024">
        <ele>650.753</ele>
        <time>2013-01-28T14:10:42Z</time>
      </trkpt>
      <trkpt lat="44.35351" lon="2.60025">
        <ele>652.663</ele>
        <time>2013-01-28T14:10:45Z</time>
      </trkpt>
      <trkpt lat="44.35348" lon="2.60031">
        <ele>659.705</ele>
        <time>2013-01-28T14:10:51Z</time>
      </trkpt>
      <trkpt lat="44.35347" lon="2.60034">
        <ele>668.187</ele>
        <time>2013-01-28T14:10:54Z</time>
      </trkpt>
      <trkpt lat="44.35344" lon="2.60055">
        <ele>667.546</ele>
        <time>2013-01-28T14:11:01Z</time>
      </trkpt>
      <trkpt lat="44.35344" lon="2.60062">
        <ele>666.625</ele>
        <time>2013-01-28T14:11:05Z</time>
      </trkpt>
      <trkpt lat="44.35344" lon="2.60077">
        <ele>679.148</ele>
        <time>2013-01-28T14:11:12Z</time>
      </trkpt>
      <trkpt lat="44.35344" lon="2.60089">
        <ele>683.407</ele>
        <time>2013-01-28T14:11:19Z</time>
      </trkpt>
      <trkpt lat="44.35342" lon="2.60099">
        <ele>682.346</ele>
        <time>2013-01-28T14:11:24Z</time>
      </trkpt>
      <trkpt lat="44.35342" lon="2.60103">
        <ele>681.672</ele>
        <time>2013-01-28T14:11:28Z</time>
      </trkpt>
      <trkpt lat="44.3534" lon="2.60121">
        <ele>687.344</ele>
        <time>2013-01-28T14:11:38Z</time>
      </trkpt>
      <trkpt lat="44.35317" lon="2.60148">
        <ele>688.914</ele>
        <time>2013-01-28T14:11:46Z</time>
      </trkpt>
      <trkpt lat="44.3531" lon="2.60157">
        <ele>690.665</ele>
        <time>2013-01-28T14:11:52Z</time>
      </trkpt>
      <trkpt lat="44.35304" lon="2.60164">
        <ele>690.404</ele>
        <time>2013-01-28T14:11:57Z</time>
      </trkpt>
      <trkpt lat="44.35302" lon="2.60165">
        <ele>685.655</ele>
        <time>2013-01-28T14:12:03Z</time>
      </trkpt>
      <trkpt lat="44.35302" lon="2.60165">
        <ele>684.674</ele>
        <time>2013-01-28T14:12:08Z</time>
      </trkpt>
      <trkpt lat="44.35302" lon="2.60165">
        <ele>685.864</ele>
        <time>2013-01-28T14:12:12Z</time>
      </trkpt>
      <trkpt lat="44.35279" lon="2.60194">
        <ele>690.705</ele>
        <time>2013-01-28T14:12:20Z</time>
      </trkpt>
      <trkpt lat="44.35266" lon="2.60209">
        <ele>689.986</ele>
        <time>2013-01-28T14:12:27Z</time>
      </trkpt>
      <trkpt lat="44.35265" lon="2.60211">
        <ele>686.935</ele>
        <time>2013-01-28T14:12:29Z</time>
      </trkpt>
      <trkpt lat="44.35256" lon="2.60221">
        <ele>683.516</ele>
        <time>2013-01-28T14:12:33Z</time>
      </trkpt>
      <trkpt lat="44.3524" lon="2.60241">
        <ele>675.334</ele>
        <time>2013-01-28T14:12:41Z</time>
      </trkpt>
      <trkpt lat="44.35237" lon="2.60245">
        <ele>675.504</ele>
        <time>2013-01-28T14:12:48Z</time>
      </trkpt>
      <trkpt lat="44.35237" lon="2.60245">
        <ele>676.423</ele>
        <time>2013-01-28T14:12:54Z</time>
      </trkpt>
      <trkpt lat="44.35237" lon="2.60245">
        <ele>674.904</ele>
        <time>2013-01-28T14:12:56Z</time>
      </trkpt>
      <trkpt lat="44.35237" lon="2.60245">
        <ele>675.693</ele>
        <time>2013-01-28T14:12:59Z</time>
      </trkpt>
      <trkpt lat="44.35237" lon="2.60347">
        <ele>669.653</ele>
        <time>2013-01-28T14:13:03Z</time>
      </trkpt>
      <trkpt lat="44.35228" lon="2.60354">
        <ele>668.092</ele>
        <time>2013-01-28T14:13:07Z</time>
      </trkpt>
      <trkpt lat="44.35212" lon="2.60368">
        <ele>666.432</ele>
        <time>2013-01-28T14:13:14Z</time>
      </trkpt>
      <trkpt lat="44.35198" lon="2.60379">
        <ele>664.022</ele>
        <time>2013-01-28T14:13:20Z</time>
      </trkpt>
      <trkpt lat="44.3518" lon="2.6039">
        <ele>663.434</ele>
        <time>2013-01-28T14:13:26Z</time>
      </trkpt>
      <trkpt lat="44.35163" lon="2.604">
        <ele>661.102</ele>
        <time>2013-01-28T14:13:33Z</time>
      </trkpt>
      <trkpt lat="44.3515" lon="2.60407">
        <ele>663.312</ele>
        <time>2013-01-28T14:13:38Z</time>
      </trkpt>
      <trkpt lat="44.35137" lon="2.60414">
        <ele>665.973</ele>
        <time>2013-01-28T14:13:44Z</time>
      </trkpt>
      <trkpt lat="44.35128" lon="2.60419">
        <ele>663.751</ele>
        <time>2013-01-28T14:13:50Z</time>
      </trkpt>
      <trkpt lat="44.35107" lon="2.6043">
        <ele>664.913</ele>
        <time>2013-01-28T14:13:57Z</time>
      </trkpt>
      <trkpt lat="44.35086" lon="2.60435">
        <ele>669.384</ele>
        <time>2013-01-28T14:14:03Z</time>
      </trkpt>
      <trkpt lat="44.35071" lon="2.60436">
        <ele>672.084</ele>
        <time>2013-01-28T14:14:08Z</time>
      </trkpt>
      <trkpt lat="44.35049" lon="2.60435">
        <ele>668.651</ele>
        <time>2013-01-28T14:14:14Z</time>
      </trkpt>
      <trkpt lat="44.35039" lon="2.60432">
        <ele>670.352</ele>
        <time>2013-01-28T14:14:18Z</time>
      </trkpt>
      <trkpt lat="44.35026" lon="2.60428">
        <ele>667.161</ele>
        <time>2013-01-28T14:14:23Z</time>
      </trkpt>
      <trkpt lat="44.35018" lon="2.60431">
        <ele>658.189</ele>
        <time>2013-01-28T14:14:29Z</time>
      </trkpt>
      <trkpt lat="44.34999" lon="2.60446">
        <ele>644.597</ele>
        <time>2013-01-28T14:14:36Z</time>
      </trkpt>
      <trkpt lat="44.34991" lon="2.60452">
        <ele>645.638</ele>
        <time>2013-01-28T14:14:40Z</time>
      </trkpt>
      <trkpt lat="44.34979" lon="2.60462">
        <ele>642.057</ele>
        <time>2013-01-28T14:14:45Z</time>
      </trkpt>
      <trkpt lat="44.34979" lon="2.60462">
        <ele>644.169</ele>
        <time>2013-01-28T14:14:50Z</time>
      </trkpt>
      <trkpt lat="44.34963" lon="2.60458">
        <ele>644.219</ele>
        <time>2013-01-28T14:14:54Z</time>
      </trkpt>
      <trkpt lat="44.34974" lon="2.60461">
        <ele>647.521</ele>
        <time>2013-01-28T14:15:00Z</time>
      </trkpt>
      <trkpt lat="44.34979" lon="2.60462">
        <ele>650.43</ele>
        <time>2013-01-28T14:15:06Z</time>
      </trkpt>
      <trkpt lat="44.34979" lon="2.60462">
        <ele>646.42</ele>
        <time>2013-01-28T14:15:12Z</time>
      </trkpt>
      <trkpt lat="44.34979" lon="2.60462">
        <ele>643.37</ele>
        <time>2013-01-28T14:15:19Z</time>
      </trkpt>
      <trkpt lat="44.34979" lon="2.60462">
        <ele>632.317</ele>
        <time>2013-01-28T14:15:25Z</time>
      </trkpt>
      <trkpt lat="44.34979" lon="2.60462">
        <ele>618.656</ele>
        <time>2013-01-28T14:15:31Z</time>
      </trkpt>
      <trkpt lat="44.35034" lon="2.60553">
        <ele>609.165</ele>
        <time>2013-01-28T14:15:37Z</time>
      </trkpt>
      <trkpt lat="44.35047" lon="2.60559">
        <ele>601.614</ele>
        <time>2013-01-28T14:15:41Z</time>
      </trkpt>
      <trkpt lat="44.35061" lon="2.60565">
        <ele>600.527</ele>
        <time>2013-01-28T14:15:47Z</time>
      </trkpt>
      <trkpt lat="44.3508" lon="2.60576">
        <ele>588.875</ele>
        <time>2013-01-28T14:15:53Z</time>
      </trkpt>
      <trkpt lat="44.35105" lon="2.60592">
        <ele>576.375</ele>
        <time>2013-01-28T14:15:59Z</time>
      </trkpt>
      <trkpt lat="44.35118" lon="2.60603">
        <ele>571.556</ele>
        <time>2013-01-28T14:16:06Z</time>
      </trkpt>
      <trkpt lat="44.35121" lon="2.60605">
        <ele>566.145</ele>
        <time>2013-01-28T14:16:08Z</time>
      </trkpt>
      <trkpt lat="44.35125" lon="2.6061">
        <ele>540.874</ele>
        <time>2013-01-28T14:16:15Z</time>
      </trkpt>
      <trkpt lat="44.35149" lon="2.60653">
        <ele>526.563</ele>
        <time>2013-01-28T14:16:20Z</time>
      </trkpt>
      <trkpt lat="44.35165" lon="2.60651">
        <ele>524.753</ele>
        <time>2013-01-28T14:16:26Z</time>
      </trkpt>
      <trkpt lat="44.35179" lon="2.60648">
        <ele>518.277</ele>
        <time>2013-01-28T14:16:31Z</time>
      </trkpt>
      <trkpt lat="44.35197" lon="2.60645">
        <ele>515.508</ele>
        <time>2013-01-28T14:16:37Z</time>
      </trkpt>
      <trkpt lat="44.35217" lon="2.60642">
        <ele>526.272</ele>
        <time>2013-01-28T14:16:44Z</time>
      </trkpt>
      <trkpt lat="44.35226" lon="2.6064">
        <ele>527.962</ele>
        <time>2013-01-28T14:16:49Z</time>
      </trkpt>
      <trkpt lat="44.35237" lon="2.60638">
        <ele>532.383</ele>
        <time>2013-01-28T14:16:54Z</time>
      </trkpt>
      <trkpt lat="44.35259" lon="2.60629">
        <ele>540.115</ele>
        <time>2013-01-28T14:17:00Z</time>
      </trkpt>
      <trkpt lat="44.35278" lon="2.60612">
        <ele>544.044</ele>
        <time>2013-01-28T14:17:06Z</time>
      </trkpt>
      <trkpt lat="44.35295" lon="2.60595">
        <ele>547.715</ele>
        <time>2013-01-28T14:17:12Z</time>
      </trkpt>
      <trkpt lat="44.35309" lon="2.60582">
        <ele>557.595</ele>
        <time>2013-01-28T14:17:18Z</time>
      </trkpt>
      <trkpt lat="44.35317" lon="2.60573">
        <ele>567.826</ele>
        <time>2013-01-28T14:17:23Z</time>
      </trkpt>
      <trkpt lat="44.35331" lon="2.6056">
        <ele>569.705</ele>
        <time>2013-01-28T14:17:29Z</time>
      </trkpt>
      <trkpt lat="44.35348" lon="2.60543">
        <ele>554.751</ele>
        <time>2013-01-28T14:17:37Z</time>
      </trkpt>
      <trkpt lat="44.35357" lon="2.60534">
        <ele>548.77</ele>
        <time>2013-01-28T14:17:41Z</time>
      </trkpt>
      <trkpt lat="44.35374" lon="2.60517">
        <ele>553.342</ele>
        <time>2013-01-28T14:17:48Z</time>
      </trkpt>
      <trkpt lat="44.35384" lon="2.60508">
        <ele>553.732</ele>
        <time>2013-01-28T14:17:53Z</time>
      </trkpt>
      <trkpt lat="44.354" lon="2.60495">
        <ele>552.262</ele>
        <time>2013-01-28T14:17:59Z</time>
      </trkpt>
      <trkpt lat="44.35413" lon="2.60485">
        <ele>549.071</ele>
        <time>2013-01-28T14:18:04Z</time>
      </trkpt>
      <trkpt lat="44.35435" lon="2.60469">
        <ele>542.24</ele>
        <time>2013-01-28T14:18:11Z</time>
      </trkpt>
      <trkpt lat="44.35449" lon="2.6046">
        <ele>544.092</ele>
        <time>2013-01-28T14:18:17Z</time>
      </trkpt>
      <trkpt lat="44.35465" lon="2.60446">
        <ele>541.292</ele>
        <time>2013-01-28T14:18:23Z</time>
      </trkpt>
      <trkpt lat="44.35482" lon="2.60426">
        <ele>542.173</ele>
        <time>2013-01-28T14:18:29Z</time>
      </trkpt>
      <trkpt lat="44.35502" lon="2.60393">
        <ele>541.623</ele>
        <time>2013-01-28T14:18:36Z</time>
      </trkpt>
      <trkpt lat="44.35516" lon="2.60361">
        <ele>546.384</ele>
        <time>2013-01-28T14:18:44Z</time>
      </trkpt>
      <trkpt lat="44.35525" lon="2.60339">
        <ele>551.185</ele>
        <time>2013-01-28T14:18:50Z</time>
      </trkpt>
      <trkpt lat="44.35533" lon="2.60316">
        <ele>556.985</ele>
        <time>2013-01-28T14:18:57Z</time>
      </trkpt>
      <trkpt lat="44.35539" lon="2.60301">
        <ele>558.845</ele>
        <time>2013-01-28T14:19:02Z</time>
      </trkpt>
      <trkpt lat="44.35527" lon="2.60257">
        <ele>559.305</ele>
        <time>2013-01-28T14:19:08Z</time>
      </trkpt>
      <trkpt lat="44.35528" lon="2.60247">
        <ele>557.823</ele>
        <time>2013-01-28T14:19:16Z</time>
      </trkpt>
      <trkpt lat="44.35528" lon="2.60252">
        <ele>550.642</ele>
        <time>2013-01-28T14:19:23Z</time>
      </trkpt>
      <trkpt lat="44.35527" lon="2.6026">
        <ele>548.062</ele>
        <time>2013-01-28T14:19:28Z</time>
      </trkpt>
      <trkpt lat="44.35587" lon="2.60174">
        <ele>548.262</ele>
        <time>2013-01-28T14:19:35Z</time>
      </trkpt>
      <trkpt lat="44.35594" lon="2.60153">
        <ele>548.963</ele>
        <time>2013-01-28T14:19:41Z</time>
      </trkpt>
      <trkpt lat="44.35605" lon="2.60121">
        <ele>539.952</ele>
        <time>2013-01-28T14:19:48Z</time>
      </trkpt>
      <trkpt lat="44.35576" lon="2.60121">
        <ele>546.724</ele>
        <time>2013-01-28T14:19:55Z</time>
      </trkpt>
      <trkpt lat="44.35618" lon="2.60078">
        <ele>547.943</ele>
        <time>2013-01-28T14:20:02Z</time>
      </trkpt>
      <trkpt lat="44.35624" lon="2.60057">
        <ele>549.623</ele>
        <time>2013-01-28T14:20:09Z</time>
      </trkpt>
      <trkpt lat="44.35628" lon="2.60038">
        <ele>554.332</ele>
        <time>2013-01-28T14:20:16Z</time>
      </trkpt>
      <trkpt lat="44.35635" lon="2.60011">
        <ele>557.464</ele>
        <time>2013-01-28T14:20:26Z</time>
      </trkpt>
      <trkpt lat="44.3564" lon="2.59983">
        <ele>564.635</ele>
        <time>2013-01-28T14:20:33Z</time>
      </trkpt>
      <trkpt lat="44.35644" lon="2.59959">
        <ele>567.014</ele>
        <time>2013-01-28T14:20:40Z</time>
      </trkpt>
      <trkpt lat="44.35647" lon="2.59945">
        <ele>569.635</ele>
        <time>2013-01-28T14:20:44Z</time>
      </trkpt>
      <trkpt lat="44.35649" lon="2.5993">
        <ele>571.835</ele>
        <time>2013-01-28T14:20:50Z</time>
      </trkpt>
      <trkpt lat="44.35653" lon="2.59909">
        <ele>575.185</ele>
        <time>2013-01-28T14:20:57Z</time>
      </trkpt>
      <trkpt lat="44.35655" lon="2.59883">
        <ele>578.136</ele>
        <time>2013-01-28T14:21:04Z</time>
      </trkpt>
      <trkpt lat="44.35658" lon="2.59855">
        <ele>576.634</ele>
        <time>2013-01-28T14:21:11Z</time>
      </trkpt>
      <trkpt lat="44.35659" lon="2.59835">
        <ele>577.604</ele>
        <time>2013-01-28T14:21:17Z</time>
      </trkpt>
      <trkpt lat="44.35662" lon="2.59811">
        <ele>574.033</ele>
        <time>2013-01-28T14:21:25Z</time>
      </trkpt>
      <trkpt lat="44.35663" lon="2.59794">
        <ele>571.583</ele>
        <time>2013-01-28T14:21:31Z</time>
      </trkpt>
      <trkpt lat="44.35665" lon="2.59782">
        <ele>570.254</ele>
        <time>2013-01-28T14:21:39Z</time>
      </trkpt>
      <trkpt lat="44.35644" lon="2.59726">
        <ele>563.143</ele>
        <time>2013-01-28T14:21:46Z</time>
      </trkpt>
      <trkpt lat="44.35644" lon="2.59726">
        <ele>562.473</ele>
        <time>2013-01-28T14:21:48Z</time>
      </trkpt>
      <trkpt lat="44.35652" lon="2.59712">
        <ele>556.003</ele>
        <time>2013-01-28T14:21:55Z</time>
      </trkpt>
      <trkpt lat="44.35662" lon="2.59688">
        <ele>553.155</ele>
        <time>2013-01-28T14:22:03Z</time>
      </trkpt>
      <trkpt lat="44.35677" lon="2.59665">
        <ele>545.444</ele>
        <time>2013-01-28T14:22:10Z</time>
      </trkpt>
      <trkpt lat="44.35683" lon="2.59657">
        <ele>540.133</ele>
        <time>2013-01-28T14:22:16Z</time>
      </trkpt>
      <trkpt lat="44.35683" lon="2.59657">
        <ele>539.224</ele>
        <time>2013-01-28T14:22:22Z</time>
      </trkpt>
      <trkpt lat="44.35718" lon="2.59623">
        <ele>530.693</ele>
        <time>2013-01-28T14:22:29Z</time>
      </trkpt>
      <trkpt lat="44.35725" lon="2.59616">
        <ele>533.454</ele>
        <time>2013-01-28T14:22:34Z</time>
      </trkpt>
      <trkpt lat="44.35633" lon="2.59575">
        <ele>538.324</ele>
        <time>2013-01-28T14:22:40Z</time>
      </trkpt>
      <trkpt lat="44.35631" lon="2.59564">
        <ele>545.305</ele>
        <time>2013-01-28T14:22:46Z</time>
      </trkpt>
      <trkpt lat="44.35726" lon="2.59614">
        <ele>547.904</ele>
        <time>2013-01-28T14:22:53Z</time>
      </trkpt>
      <trkpt lat="44.35702" lon="2.59511">
        <ele>548.413</ele>
        <time>2013-01-28T14:22:59Z</time>
      </trkpt>
      <trkpt lat="44.35706" lon="2.59487">
        <ele>548.182</ele>
        <time>2013-01-28T14:23:05Z</time>
      </trkpt>
      <trkpt lat="44.35754" lon="2.59402">
        <ele>543.341</ele>
        <time>2013-01-28T14:23:10Z</time>
      </trkpt>
      <trkpt lat="44.35739" lon="2.59378">
        <ele>517.036</ele>
        <time>2013-01-28T14:23:19Z</time>
      </trkpt>
      <trkpt lat="44.3573" lon="2.59359">
        <ele>515.038</ele>
        <time>2013-01-28T14:23:25Z</time>
      </trkpt>
      <trkpt lat="44.35727" lon="2.59352">
        <ele>515.9</ele>
        <time>2013-01-28T14:23:30Z</time>
      </trkpt>
      <trkpt lat="44.35722" lon="2.5934">
        <ele>515.77</ele>
        <time>2013-01-28T14:23:35Z</time>
      </trkpt>
      <trkpt lat="44.35716" lon="2.59327">
        <ele>523.342</ele>
        <time>2013-01-28T14:23:43Z</time>
      </trkpt>
      <trkpt lat="44.3571" lon="2.59313">
        <ele>527.623</ele>
        <time>2013-01-28T14:23:49Z</time>
      </trkpt>
      <trkpt lat="44.35704" lon="2.59289">
        <ele>529.372</ele>
        <time>2013-01-28T14:23:57Z</time>
      </trkpt>
      <trkpt lat="44.357" lon="2.59273">
        <ele>529.542</ele>
        <time>2013-01-28T14:24:04Z</time>
      </trkpt>
      <trkpt lat="44.35693" lon="2.59256">
        <ele>521.301</ele>
        <time>2013-01-28T14:24:10Z</time>
      </trkpt>
      <trkpt lat="44.35692" lon="2.59252">
        <ele>523.376</ele>
        <time>2013-01-28T14:24:14Z</time>
      </trkpt>
      <trkpt lat="44.35684" lon="2.59239">
        <ele>518.329</ele>
        <time>2013-01-28T14:24:24Z</time>
      </trkpt>
      <trkpt lat="44.35674" lon="2.59223">
        <ele>519.371</ele>
        <time>2013-01-28T14:24:30Z</time>
      </trkpt>
      <trkpt lat="44.35666" lon="2.5921">
        <ele>523.662</ele>
        <time>2013-01-28T14:24:36Z</time>
      </trkpt>
      <trkpt lat="44.35657" lon="2.59196">
        <ele>527.973</ele>
        <time>2013-01-28T14:24:42Z</time>
      </trkpt>
      <trkpt lat="44.35643" lon="2.59173">
        <ele>523.32</ele>
        <time>2013-01-28T14:24:49Z</time>
      </trkpt>
      <trkpt lat="44.35632" lon="2.59148">
        <ele>524.731</ele>
        <time>2013-01-28T14:24:56Z</time>
      </trkpt>
      <trkpt lat="44.3562" lon="2.59127">
        <ele>527.992</ele>
        <time>2013-01-28T14:25:03Z</time>
      </trkpt>
      <trkpt lat="44.35608" lon="2.59112">
        <ele>527.711</ele>
        <time>2013-01-28T14:25:09Z</time>
      </trkpt>
      <trkpt lat="44.35597" lon="2.59101">
        <ele>528.7</ele>
        <time>2013-01-28T14:25:15Z</time>
      </trkpt>
      <trkpt lat="44.35587" lon="2.59089">
        <ele>528.18</ele>
        <time>2013-01-28T14:25:21Z</time>
      </trkpt>
      <trkpt lat="44.35569" lon="2.59078">
        <ele>530.271</ele>
        <time>2013-01-28T14:25:28Z</time>
      </trkpt>
      <trkpt lat="44.35563" lon="2.59078">
        <ele>532.432</ele>
        <time>2013-01-28T14:25:33Z</time>
      </trkpt>
      <trkpt lat="44.3555" lon="2.59081">
        <ele>537.022</ele>
        <time>2013-01-28T14:25:40Z</time>
      </trkpt>
      <trkpt lat="44.35543" lon="2.59084">
        <ele>537.733</ele>
        <time>2013-01-28T14:25:46Z</time>
      </trkpt>
      <trkpt lat="44.35543" lon="2.59084">
        <ele>537.449</ele>
        <time>2013-01-28T14:25:48Z</time>
      </trkpt>
      <trkpt lat="44.35535" lon="2.59087">
        <ele>536.532</ele>
        <time>2013-01-28T14:25:52Z</time>
      </trkpt>
      <trkpt lat="44.35534" lon="2.59087">
        <ele>536.592</ele>
        <time>2013-01-28T14:25:54Z</time>
      </trkpt>
      <trkpt lat="44.35525" lon="2.59091">
        <ele>545.395</ele>
        <time>2013-01-28T14:26:01Z</time>
      </trkpt>
      <trkpt lat="44.3552" lon="2.59091">
        <ele>549.154</ele>
        <time>2013-01-28T14:26:08Z</time>
      </trkpt>
      <trkpt lat="44.35518" lon="2.59141">
        <ele>550.684</ele>
        <time>2013-01-28T14:26:13Z</time>
      </trkpt>
      <trkpt lat="44.35508" lon="2.59093">
        <ele>554.183</ele>
        <time>2013-01-28T14:26:22Z</time>
      </trkpt>
      <trkpt lat="44.35485" lon="2.59107">
        <ele>555.493</ele>
        <time>2013-01-28T14:26:27Z</time>
      </trkpt>
      <trkpt lat="44.35479" lon="2.59114">
        <ele>553.164</ele>
        <time>2013-01-28T14:26:33Z</time>
      </trkpt>
      <trkpt lat="44.35479" lon="2.59114">
        <ele>553.127</ele>
        <time>2013-01-28T14:26:34Z</time>
      </trkpt>
      <trkpt lat="44.35466" lon="2.59134">
        <ele>559.524</ele>
        <time>2013-01-28T14:26:39Z</time>
      </trkpt>
      <trkpt lat="44.35463" lon="2.59138">
        <ele>556.573</ele>
        <time>2013-01-28T14:26:41Z</time>
      </trkpt>
      <trkpt lat="44.35459" lon="2.59142">
        <ele>553.061</ele>
        <time>2013-01-28T14:26:49Z</time>
      </trkpt>
      <trkpt lat="44.35459" lon="2.59142">
        <ele>548.06</ele>
        <time>2013-01-28T14:26:53Z</time>
      </trkpt>
      <trkpt lat="44.35436" lon="2.59179">
        <ele>541.879</ele>
        <time>2013-01-28T14:26:58Z</time>
      </trkpt>
      <trkpt lat="44.35436" lon="2.59179">
        <ele>540.969</ele>
        <time>2013-01-28T14:27:02Z</time>
      </trkpt>
      <trkpt lat="44.35435" lon="2.5918">
        <ele>540.45</ele>
        <time>2013-01-28T14:27:03Z</time>
      </trkpt>
      <trkpt lat="44.35428" lon="2.59189">
        <ele>548.602</ele>
        <time>2013-01-28T14:27:10Z</time>
      </trkpt>
      <trkpt lat="44.3547" lon="2.59303">
        <ele>547.981</ele>
        <time>2013-01-28T14:27:16Z</time>
      </trkpt>
      <trkpt lat="44.35466" lon="2.59308">
        <ele>550.942</ele>
        <time>2013-01-28T14:27:21Z</time>
      </trkpt>
      <trkpt lat="44.35456" lon="2.59317">
        <ele>548.572</ele>
        <time>2013-01-28T14:27:26Z</time>
      </trkpt>
      <trkpt lat="44.35449" lon="2.59324">
        <ele>546.851</ele>
        <time>2013-01-28T14:27:29Z</time>
      </trkpt>
      <trkpt lat="44.35441" lon="2.59321">
        <ele>543.17</ele>
        <time>2013-01-28T14:27:34Z</time>
      </trkpt>
      <trkpt lat="44.35437" lon="2.59332">
        <ele>545.521</ele>
        <time>2013-01-28T14:27:39Z</time>
      </trkpt>
      <trkpt lat="44.3543" lon="2.59337">
        <ele>550.573</ele>
        <time>2013-01-28T14:27:46Z</time>
      </trkpt>
      <trkpt lat="44.35415" lon="2.5935">
        <ele>553.393</ele>
        <time>2013-01-28T14:27:52Z</time>
      </trkpt>
      <trkpt lat="44.35405" lon="2.5936">
        <ele>552.072</ele>
        <time>2013-01-28T14:27:58Z</time>
      </trkpt>
      <trkpt lat="44.35401" lon="2.59365">
        <ele>554.523</ele>
        <time>2013-01-28T14:28:02Z</time>
      </trkpt>
      <trkpt lat="44.3539" lon="2.59377">
        <ele>553.172</ele>
        <time>2013-01-28T14:28:07Z</time>
      </trkpt>
      <trkpt lat="44.35381" lon="2.59387">
        <ele>552.271</ele>
        <time>2013-01-28T14:28:12Z</time>
      </trkpt>
      <trkpt lat="44.35366" lon="2.59405">
        <ele>551.272</ele>
        <time>2013-01-28T14:28:19Z</time>
      </trkpt>
      <trkpt lat="44.35363" lon="2.5941">
        <ele>549.581</ele>
        <time>2013-01-28T14:28:21Z</time>
      </trkpt>
      <trkpt lat="44.35348" lon="2.59429">
        <ele>540.568</ele>
        <time>2013-01-28T14:28:27Z</time>
      </trkpt>
      <trkpt lat="44.35337" lon="2.59443">
        <ele>533.648</ele>
        <time>2013-01-28T14:28:33Z</time>
      </trkpt>
      <trkpt lat="44.35327" lon="2.59457">
        <ele>530.418</ele>
        <time>2013-01-28T14:28:39Z</time>
      </trkpt>
      <trkpt lat="44.35324" lon="2.59462">
        <ele>532.159</ele>
        <time>2013-01-28T14:28:41Z</time>
      </trkpt>
      <trkpt lat="44.35307" lon="2.59483">
        <ele>523.155</ele>
        <time>2013-01-28T14:28:47Z</time>
      </trkpt>
      <trkpt lat="44.35299" lon="2.59494">
        <ele>523.558</ele>
        <time>2013-01-28T14:28:53Z</time>
      </trkpt>
      <trkpt lat="44.35255" lon="2.5954">
        <ele>518.109</ele>
        <time>2013-01-28T14:28:58Z</time>
      </trkpt>
      <trkpt lat="44.35211" lon="2.59604">
        <ele>504.737</ele>
        <time>2013-01-28T14:29:04Z</time>
      </trkpt>
      <trkpt lat="44.35177" lon="2.59643">
        <ele>503.448</ele>
        <time>2013-01-28T14:29:09Z</time>
      </trkpt>
      <trkpt lat="44.35125" lon="2.5963">
        <ele>505.71</ele>
        <time>2013-01-28T14:29:16Z</time>
      </trkpt>
      <trkpt lat="44.35115" lon="2.59645">
        <ele>504.499</ele>
        <time>2013-01-28T14:29:20Z</time>
      </trkpt>
      <trkpt lat="44.35102" lon="2.5966">
        <ele>517.965</ele>
        <time>2013-01-28T14:29:26Z</time>
      </trkpt>
      <trkpt lat="44.35089" lon="2.5967">
        <ele>516.811</ele>
        <time>2013-01-28T14:29:32Z</time>
      </trkpt>
      <trkpt lat="44.35074" lon="2.5968">
        <ele>516.17</ele>
        <time>2013-01-28T14:29:39Z</time>
      </trkpt>
      <trkpt lat="44.35062" lon="2.59685">
        <ele>519.791</ele>
        <time>2013-01-28T14:29:44Z</time>
      </trkpt>
      <trkpt lat="44.35046" lon="2.59687">
        <ele>530.384</ele>
        <time>2013-01-28T14:29:51Z</time>
      </trkpt>
      <trkpt lat="44.35034" lon="2.59684">
        <ele>524.08</ele>
        <time>2013-01-28T14:29:56Z</time>
      </trkpt>
      <trkpt lat="44.35023" lon="2.59675">
        <ele>513.397</ele>
        <time>2013-01-28T14:30:01Z</time>
      </trkpt>
      <trkpt lat="44.35015" lon="2.59666">
        <ele>515.799</ele>
        <time>2013-01-28T14:30:06Z</time>
      </trkpt>
      <trkpt lat="44.35009" lon="2.59648">
        <ele>521.851</ele>
        <time>2013-01-28T14:30:11Z</time>
      </trkpt>
      <trkpt lat="44.35007" lon="2.59621">
        <ele>518.24</ele>
        <time>2013-01-28T14:30:17Z</time>
      </trkpt>
      <trkpt lat="44.35007" lon="2.59595">
        <ele>514.668</ele>
        <time>2013-01-28T14:30:23Z</time>
      </trkpt>
      <trkpt lat="44.35006" lon="2.59569">
        <ele>515.499</ele>
        <time>2013-01-28T14:30:29Z</time>
      </trkpt>
      <trkpt lat="44.34999" lon="2.59545">
        <ele>510.497</ele>
        <time>2013-01-28T14:30:35Z</time>
      </trkpt>
      <trkpt lat="44.34994" lon="2.59519">
        <ele>512.018</ele>
        <time>2013-01-28T14:30:42Z</time>
      </trkpt>
      <trkpt lat="44.34992" lon="2.59503">
        <ele>518.19</ele>
        <time>2013-01-28T14:30:47Z</time>
      </trkpt>
      <trkpt lat="44.34991" lon="2.59494">
        <ele>515.619</ele>
        <time>2013-01-28T14:30:50Z</time>
      </trkpt>
      <trkpt lat="44.34989" lon="2.59482">
        <ele>521.821</ele>
        <time>2013-01-28T14:30:57Z</time>
      </trkpt>
      <trkpt lat="44.34987" lon="2.59472">
        <ele>527.511</ele>
        <time>2013-01-28T14:31:04Z</time>
      </trkpt>
      <trkpt lat="44.34985" lon="2.59462">
        <ele>528.211</ele>
        <time>2013-01-28T14:31:08Z</time>
      </trkpt>
      <trkpt lat="44.34984" lon="2.59455">
        <ele>531.882</ele>
        <time>2013-01-28T14:31:11Z</time>
      </trkpt>
      <trkpt lat="44.34982" lon="2.59443">
        <ele>535.411</ele>
        <time>2013-01-28T14:31:16Z</time>
      </trkpt>
      <trkpt lat="44.34979" lon="2.5943">
        <ele>534.55</ele>
        <time>2013-01-28T14:31:21Z</time>
      </trkpt>
      <trkpt lat="44.34977" lon="2.59418">
        <ele>532.139</ele>
        <time>2013-01-28T14:31:25Z</time>
      </trkpt>
      <trkpt lat="44.34973" lon="2.59394">
        <ele>530.829</ele>
        <time>2013-01-28T14:31:32Z</time>
      </trkpt>
      <trkpt lat="44.34972" lon="2.59376">
        <ele>531.652</ele>
        <time>2013-01-28T14:31:38Z</time>
      </trkpt>
      <trkpt lat="44.34971" lon="2.59362">
        <ele>532.069</ele>
        <time>2013-01-28T14:31:42Z</time>
      </trkpt>
      <trkpt lat="44.34971" lon="2.59357">
        <ele>538.291</ele>
        <time>2013-01-28T14:31:48Z</time>
      </trkpt>
      <trkpt lat="44.34971" lon="2.59357">
        <ele>536.251</ele>
        <time>2013-01-28T14:31:49Z</time>
      </trkpt>
      <trkpt lat="44.34972" lon="2.59331">
        <ele>531.109</ele>
        <time>2013-01-28T14:31:56Z</time>
      </trkpt>
      <trkpt lat="44.34972" lon="2.59331">
        <ele>529.958</ele>
        <time>2013-01-28T14:31:57Z</time>
      </trkpt>
      <trkpt lat="44.34976" lon="2.5931">
        <ele>521.516</ele>
        <time>2013-01-28T14:32:04Z</time>
      </trkpt>
      <trkpt lat="44.34979" lon="2.59301">
        <ele>522.408</ele>
        <time>2013-01-28T14:32:07Z</time>
      </trkpt>
      <trkpt lat="44.34988" lon="2.59268">
        <ele>516.176</ele>
        <time>2013-01-28T14:32:14Z</time>
      </trkpt>
      <trkpt lat="44.34991" lon="2.59257">
        <ele>516.117</ele>
        <time>2013-01-28T14:32:18Z</time>
      </trkpt>
      <trkpt lat="44.34991" lon="2.59257">
        <ele>513.086</ele>
        <time>2013-01-28T14:32:21Z</time>
      </trkpt>
      <trkpt lat="44.34995" lon="2.59242">
        <ele>517.868</ele>
        <time>2013-01-28T14:32:24Z</time>
      </trkpt>
      <trkpt lat="44.35001" lon="2.59217">
        <ele>514.578</ele>
        <time>2013-01-28T14:32:31Z</time>
      </trkpt>
      <trkpt lat="44.35006" lon="2.59202">
        <ele>519.139</ele>
        <time>2013-01-28T14:32:37Z</time>
      </trkpt>
      <trkpt lat="44.35017" lon="2.59184">
        <ele>523.73</ele>
        <time>2013-01-28T14:32:45Z</time>
      </trkpt>
      <trkpt lat="44.35023" lon="2.59174">
        <ele>524.97</ele>
        <time>2013-01-28T14:32:50Z</time>
      </trkpt>
      <trkpt lat="44.35038" lon="2.59149">
        <ele>524.147</ele>
        <time>2013-01-28T14:32:58Z</time>
      </trkpt>
      <trkpt lat="44.35038" lon="2.59149">
        <ele>523.751</ele>
        <time>2013-01-28T14:32:59Z</time>
      </trkpt>
      <trkpt lat="44.3505" lon="2.5913">
        <ele>519.827</ele>
        <time>2013-01-28T14:33:08Z</time>
      </trkpt>
      <trkpt lat="44.35053" lon="2.59126">
        <ele>518.276</ele>
        <time>2013-01-28T14:33:09Z</time>
      </trkpt>
      <trkpt lat="44.35059" lon="2.59117">
        <ele>514.516</ele>
        <time>2013-01-28T14:33:12Z</time>
      </trkpt>
      <trkpt lat="44.35067" lon="2.59106">
        <ele>518.038</ele>
        <time>2013-01-28T14:33:17Z</time>
      </trkpt>
      <trkpt lat="44.35082" lon="2.59085">
        <ele>519.259</ele>
        <time>2013-01-28T14:33:25Z</time>
      </trkpt>
      <trkpt lat="44.35083" lon="2.59083">
        <ele>519.829</ele>
        <time>2013-01-28T14:33:26Z</time>
      </trkpt>
      <trkpt lat="44.35094" lon="2.59068">
        <ele>524.68</ele>
        <time>2013-01-28T14:33:32Z</time>
      </trkpt>
      <trkpt lat="44.3511" lon="2.59045">
        <ele>521.209</ele>
        <time>2013-01-28T14:33:37Z</time>
      </trkpt>
      <trkpt lat="44.35111" lon="2.59043">
        <ele>521.249</ele>
        <time>2013-01-28T14:33:38Z</time>
      </trkpt>
      <trkpt lat="44.35121" lon="2.59027">
        <ele>520.278</ele>
        <time>2013-01-28T14:33:45Z</time>
      </trkpt>
      <trkpt lat="44.35134" lon="2.59008">
        <ele>521.588</ele>
        <time>2013-01-28T14:33:51Z</time>
      </trkpt>
      <trkpt lat="44.35145" lon="2.58991">
        <ele>522.098</ele>
        <time>2013-01-28T14:33:58Z</time>
      </trkpt>
      <trkpt lat="44.35151" lon="2.58982">
        <ele>519.557</ele>
        <time>2013-01-28T14:34:01Z</time>
      </trkpt>
      <trkpt lat="44.3516" lon="2.58962">
        <ele>520.518</ele>
        <time>2013-01-28T14:34:07Z</time>
      </trkpt>
      <trkpt lat="44.35163" lon="2.58954">
        <ele>518.386</ele>
        <time>2013-01-28T14:34:13Z</time>
      </trkpt>
      <trkpt lat="44.35163" lon="2.58954">
        <ele>521.958</ele>
        <time>2013-01-28T14:34:15Z</time>
      </trkpt>
      <trkpt lat="44.35173" lon="2.58925">
        <ele>521.758</ele>
        <time>2013-01-28T14:34:22Z</time>
      </trkpt>
      <trkpt lat="44.35181" lon="2.58904">
        <ele>517.237</ele>
        <time>2013-01-28T14:34:29Z</time>
      </trkpt>
      <trkpt lat="44.35195" lon="2.58875">
        <ele>508.935</ele>
        <time>2013-01-28T14:34:35Z</time>
      </trkpt>
      <trkpt lat="44.35207" lon="2.58852">
        <ele>509.426</ele>
        <time>2013-01-28T14:34:41Z</time>
      </trkpt>
      <trkpt lat="44.3521" lon="2.58845">
        <ele>508.786</ele>
        <time>2013-01-28T14:34:44Z</time>
      </trkpt>
      <trkpt lat="44.35215" lon="2.58836">
        <ele>508.797</ele>
        <time>2013-01-28T14:34:48Z</time>
      </trkpt>
      <trkpt lat="44.35223" lon="2.58819">
        <ele>506.646</ele>
        <time>2013-01-28T14:34:54Z</time>
      </trkpt>
      <trkpt lat="44.35234" lon="2.58797">
        <ele>515.479</ele>
        <time>2013-01-28T14:35:01Z</time>
      </trkpt>
      <trkpt lat="44.35244" lon="2.58777">
        <ele>516.088</ele>
        <time>2013-01-28T14:35:08Z</time>
      </trkpt>
      <trkpt lat="44.35245" lon="2.58772">
        <ele>514.297</ele>
        <time>2013-01-28T14:35:15Z</time>
      </trkpt>
      <trkpt lat="44.35255" lon="2.58737">
        <ele>513.218</ele>
        <time>2013-01-28T14:35:22Z</time>
      </trkpt>
      <trkpt lat="44.35258" lon="2.5873">
        <ele>512.047</ele>
        <time>2013-01-28T14:35:25Z</time>
      </trkpt>
      <trkpt lat="44.35258" lon="2.58727">
        <ele>510.938</ele>
        <time>2013-01-28T14:35:32Z</time>
      </trkpt>
      <trkpt lat="44.35258" lon="2.58727">
        <ele>510.147</ele>
        <time>2013-01-28T14:35:34Z</time>
      </trkpt>
      <trkpt lat="44.35269" lon="2.58701">
        <ele>506.197</ele>
        <time>2013-01-28T14:35:41Z</time>
      </trkpt>
      <trkpt lat="44.35272" lon="2.58694">
        <ele>509.488</ele>
        <time>2013-01-28T14:35:46Z</time>
      </trkpt>
      <trkpt lat="44.3528" lon="2.58679">
        <ele>510.418</ele>
        <time>2013-01-28T14:35:50Z</time>
      </trkpt>
      <trkpt lat="44.35289" lon="2.58662">
        <ele>515.4</ele>
        <time>2013-01-28T14:35:55Z</time>
      </trkpt>
      <trkpt lat="44.35303" lon="2.58634">
        <ele>517.669</ele>
        <time>2013-01-28T14:36:04Z</time>
      </trkpt>
      <trkpt lat="44.35311" lon="2.58621">
        <ele>528.113</ele>
        <time>2013-01-28T14:36:09Z</time>
      </trkpt>
      <trkpt lat="44.3532" lon="2.58601">
        <ele>534.082</ele>
        <time>2013-01-28T14:36:16Z</time>
      </trkpt>
      <trkpt lat="44.35323" lon="2.58595">
        <ele>535.463</ele>
        <time>2013-01-28T14:36:18Z</time>
      </trkpt>
      <trkpt lat="44.35331" lon="2.58576">
        <ele>535.862</ele>
        <time>2013-01-28T14:36:25Z</time>
      </trkpt>
      <trkpt lat="44.35342" lon="2.58559">
        <ele>538.411</ele>
        <time>2013-01-28T14:36:31Z</time>
      </trkpt>
      <trkpt lat="44.35362" lon="2.58537">
        <ele>544.773</ele>
        <time>2013-01-28T14:36:38Z</time>
      </trkpt>
      <trkpt lat="44.35372" lon="2.58529">
        <ele>543.912</ele>
        <time>2013-01-28T14:36:44Z</time>
      </trkpt>
      <trkpt lat="44.35372" lon="2.58509">
        <ele>547.461</ele>
        <time>2013-01-28T14:36:52Z</time>
      </trkpt>
      <trkpt lat="44.35372" lon="2.58496">
        <ele>557.913</ele>
        <time>2013-01-28T14:36:58Z</time>
      </trkpt>
      <trkpt lat="44.35375" lon="2.58479">
        <ele>562.103</ele>
        <time>2013-01-28T14:37:03Z</time>
      </trkpt>
      <trkpt lat="44.35372" lon="2.58454">
        <ele>565.513</ele>
        <time>2013-01-28T14:37:10Z</time>
      </trkpt>
      <trkpt lat="44.35371" lon="2.58434">
        <ele>568.894</ele>
        <time>2013-01-28T14:37:16Z</time>
      </trkpt>
      <trkpt lat="44.35368" lon="2.58413">
        <ele>571.694</ele>
        <time>2013-01-28T14:37:22Z</time>
      </trkpt>
      <trkpt lat="44.35365" lon="2.58392">
        <ele>574.623</ele>
        <time>2013-01-28T14:37:29Z</time>
      </trkpt>
      <trkpt lat="44.35362" lon="2.58372">
        <ele>575.503</ele>
        <time>2013-01-28T14:37:36Z</time>
      </trkpt>
      <trkpt lat="44.35361" lon="2.58369">
        <ele>576.734</ele>
        <time>2013-01-28T14:37:37Z</time>
      </trkpt>
      <trkpt lat="44.35357" lon="2.58356">
        <ele>576.622</ele>
        <time>2013-01-28T14:37:41Z</time>
      </trkpt>
      <trkpt lat="44.35353" lon="2.58337">
        <ele>576.312</ele>
        <time>2013-01-28T14:37:48Z</time>
      </trkpt>
      <trkpt lat="44.35353" lon="2.58337">
        <ele>571.37</ele>
        <time>2013-01-28T14:37:53Z</time>
      </trkpt>
      <trkpt lat="44.35349" lon="2.583">
        <ele>566.19</ele>
        <time>2013-01-28T14:38:00Z</time>
      </trkpt>
      <trkpt lat="44.35348" lon="2.58296">
        <ele>566.48</ele>
        <time>2013-01-28T14:38:01Z</time>
      </trkpt>
      <trkpt lat="44.35347" lon="2.58277">
        <ele>555.268</ele>
        <time>2013-01-28T14:38:07Z</time>
      </trkpt>
      <trkpt lat="44.35346" lon="2.58271">
        <ele>549.287</ele>
        <time>2013-01-28T14:38:08Z</time>
      </trkpt>
      <trkpt lat="44.35349" lon="2.58223">
        <ele>524.276</ele>
        <time>2013-01-28T14:38:17Z</time>
      </trkpt>
      <trkpt lat="44.35351" lon="2.58199">
        <ele>517.136</ele>
        <time>2013-01-28T14:38:23Z</time>
      </trkpt>
      <trkpt lat="44.35353" lon="2.58183">
        <ele>511.894</ele>
        <time>2013-01-28T14:38:28Z</time>
      </trkpt>
      <trkpt lat="44.35356" lon="2.58168">
        <ele>506.124</ele>
        <time>2013-01-28T14:38:32Z</time>
      </trkpt>
      <trkpt lat="44.35359" lon="2.58151">
        <ele>502.313</ele>
        <time>2013-01-28T14:38:37Z</time>
      </trkpt>
      <trkpt lat="44.3536" lon="2.58141">
        <ele>498.704</ele>
        <time>2013-01-28T14:38:41Z</time>
      </trkpt>
      <trkpt lat="44.35366" lon="2.58115">
        <ele>492.682</ele>
        <time>2013-01-28T14:38:48Z</time>
      </trkpt>
      <trkpt lat="44.35367" lon="2.58105">
        <ele>499.196</ele>
        <time>2013-01-28T14:38:52Z</time>
      </trkpt>
      <trkpt lat="44.35367" lon="2.58102">
        <ele>496.875</ele>
        <time>2013-01-28T14:38:57Z</time>
      </trkpt>
      <trkpt lat="44.35367" lon="2.58102">
        <ele>502.897</ele>
        <time>2013-01-28T14:39:01Z</time>
      </trkpt>
      <trkpt lat="44.35376" lon="2.58078">
        <ele>511.22</ele>
        <time>2013-01-28T14:39:07Z</time>
      </trkpt>
      <trkpt lat="44.35376" lon="2.58078">
        <ele>513.18</ele>
        <time>2013-01-28T14:39:08Z</time>
      </trkpt>
      <trkpt lat="44.35376" lon="2.58075">
        <ele>519.121</ele>
        <time>2013-01-28T14:39:12Z</time>
      </trkpt>
      <trkpt lat="44.35376" lon="2.58069">
        <ele>523.221</ele>
        <time>2013-01-28T14:39:16Z</time>
      </trkpt>
      <trkpt lat="44.35376" lon="2.58062">
        <ele>531.522</ele>
        <time>2013-01-28T14:39:22Z</time>
      </trkpt>
      <trkpt lat="44.35375" lon="2.58055">
        <ele>542.282</ele>
        <time>2013-01-28T14:39:29Z</time>
      </trkpt>
      <trkpt lat="44.35374" lon="2.58041">
        <ele>549.441</ele>
        <time>2013-01-28T14:39:37Z</time>
      </trkpt>
      <trkpt lat="44.35374" lon="2.58039">
        <ele>548.555</ele>
        <time>2013-01-28T14:39:40Z</time>
      </trkpt>
      <trkpt lat="44.35374" lon="2.58039">
        <ele>537.867</ele>
        <time>2013-01-28T14:39:49Z</time>
      </trkpt>
      <trkpt lat="44.35372" lon="2.58011">
        <ele>536.587</ele>
        <time>2013-01-28T14:39:54Z</time>
      </trkpt>
      <trkpt lat="44.35372" lon="2.58011">
        <ele>535.8</ele>
        <time>2013-01-28T14:39:55Z</time>
      </trkpt>
      <trkpt lat="44.35371" lon="2.57996">
        <ele>534.33</ele>
        <time>2013-01-28T14:40:23Z</time>
      </trkpt>
      <trkpt lat="44.35371" lon="2.57992">
        <ele>536.14</ele>
        <time>2013-01-28T14:40:31Z</time>
      </trkpt>
      <trkpt lat="44.3537" lon="2.57979">
        <ele>538.979</ele>
        <time>2013-01-28T14:40:38Z</time>
      </trkpt>
      <trkpt lat="44.3537" lon="2.57976">
        <ele>539.809</ele>
        <time>2013-01-28T14:40:41Z</time>
      </trkpt>
      <trkpt lat="44.3537" lon="2.57972">
        <ele>540.179</ele>
        <time>2013-01-28T14:40:45Z</time>
      </trkpt>
      <trkpt lat="44.35369" lon="2.57969">
        <ele>541.179</ele>
        <time>2013-01-28T14:40:54Z</time>
      </trkpt>
      <trkpt lat="44.35369" lon="2.5796">
        <ele>541.818</ele>
        <time>2013-01-28T14:40:57Z</time>
      </trkpt>
      <trkpt lat="44.35369" lon="2.57957">
        <ele>544.459</ele>
        <time>2013-01-28T14:41:06Z</time>
      </trkpt>
      <trkpt lat="44.35369" lon="2.57957">
        <ele>547.069</ele>
        <time>2013-01-28T14:41:13Z</time>
      </trkpt>
      <trkpt lat="44.35369" lon="2.57957">
        <ele>546.738</ele>
        <time>2013-01-28T14:41:21Z</time>
      </trkpt>
      <trkpt lat="44.35369" lon="2.57957">
        <ele>548.774</ele>
        <time>2013-01-28T14:41:23Z</time>
      </trkpt>
      <trkpt lat="44.35369" lon="2.57957">
        <ele>550.199</ele>
        <time>2013-01-28T14:41:28Z</time>
      </trkpt>
      <trkpt lat="44.35369" lon="2.57957">
        <ele>553.189</ele>
        <time>2013-01-28T14:41:39Z</time>
      </trkpt>
      <trkpt lat="44.35369" lon="2.57957">
        <ele>555.178</ele>
        <time>2013-01-28T14:41:49Z</time>
      </trkpt>
      <trkpt lat="44.35369" lon="2.57957">
        <ele>556.626</ele>
        <time>2013-01-28T14:41:55Z</time>
      </trkpt>
      <trkpt lat="44.3531" lon="2.57934">
        <ele>560.938</ele>
        <time>2013-01-28T14:42:12Z</time>
      </trkpt>
      <trkpt lat="44.35322" lon="2.57918">
        <ele>565.47</ele>
        <time>2013-01-28T14:42:22Z</time>
      </trkpt>
      <trkpt lat="44.35331" lon="2.57907">
        <ele>571.011</ele>
        <time>2013-01-28T14:42:29Z</time>
      </trkpt>
      <trkpt lat="44.35342" lon="2.57894">
        <ele>575.011</ele>
        <time>2013-01-28T14:42:36Z</time>
      </trkpt>
      <trkpt lat="44.35354" lon="2.57877">
        <ele>580.411</ele>
        <time>2013-01-28T14:42:44Z</time>
      </trkpt>
      <trkpt lat="44.35356" lon="2.57873">
        <ele>581.831</ele>
        <time>2013-01-28T14:42:46Z</time>
      </trkpt>
      <trkpt lat="44.35368" lon="2.57858">
        <ele>593.585</ele>
        <time>2013-01-28T14:42:52Z</time>
      </trkpt>
      <trkpt lat="44.35379" lon="2.57851">
        <ele>597.175</ele>
        <time>2013-01-28T14:42:57Z</time>
      </trkpt>
      <trkpt lat="44.35394" lon="2.57847">
        <ele>612.309</ele>
        <time>2013-01-28T14:43:04Z</time>
      </trkpt>
      <trkpt lat="44.35404" lon="2.57847">
        <ele>622.31</ele>
        <time>2013-01-28T14:43:09Z</time>
      </trkpt>
      <trkpt lat="44.35411" lon="2.57847">
        <ele>629.679</ele>
        <time>2013-01-28T14:43:14Z</time>
      </trkpt>
      <trkpt lat="44.35417" lon="2.57848">
        <ele>629.027</ele>
        <time>2013-01-28T14:43:17Z</time>
      </trkpt>
      <trkpt lat="44.3542" lon="2.57848">
        <ele>622.269</ele>
        <time>2013-01-28T14:43:19Z</time>
      </trkpt>
      <trkpt lat="44.35423" lon="2.57848">
        <ele>608.949</ele>
        <time>2013-01-28T14:43:24Z</time>
      </trkpt>
      <trkpt lat="44.3543" lon="2.57833">
        <ele>596.429</ele>
        <time>2013-01-28T14:43:37Z</time>
      </trkpt>
      <trkpt lat="44.35428" lon="2.57827">
        <ele>590.508</ele>
        <time>2013-01-28T14:43:46Z</time>
      </trkpt>
      <trkpt lat="44.35419" lon="2.57802">
        <ele>588.259</ele>
        <time>2013-01-28T14:43:56Z</time>
      </trkpt>
      <trkpt lat="44.35414" lon="2.57787">
        <ele>587.899</ele>
        <time>2013-01-28T14:44:06Z</time>
      </trkpt>
      <trkpt lat="44.35412" lon="2.57779">
        <ele>588.829</ele>
        <time>2013-01-28T14:44:12Z</time>
      </trkpt>
      <trkpt lat="44.35408" lon="2.57772">
        <ele>591.209</ele>
        <time>2013-01-28T14:44:19Z</time>
      </trkpt>
      <trkpt lat="44.35405" lon="2.57764">
        <ele>591.149</ele>
        <time>2013-01-28T14:44:25Z</time>
      </trkpt>
      <trkpt lat="44.35403" lon="2.57758">
        <ele>591.615</ele>
        <time>2013-01-28T14:44:31Z</time>
      </trkpt>
      <trkpt lat="44.35402" lon="2.57757">
        <ele>591.829</ele>
        <time>2013-01-28T14:44:32Z</time>
      </trkpt>
      <trkpt lat="44.35396" lon="2.57746">
        <ele>592.948</ele>
        <time>2013-01-28T14:44:42Z</time>
      </trkpt>
      <trkpt lat="44.35392" lon="2.57738">
        <ele>595.189</ele>
        <time>2013-01-28T14:44:51Z</time>
      </trkpt>
      <trkpt lat="44.35391" lon="2.57735">
        <ele>595.559</ele>
        <time>2013-01-28T14:44:52Z</time>
      </trkpt>
      <trkpt lat="44.35388" lon="2.5773">
        <ele>602.169</ele>
        <time>2013-01-28T14:45:01Z</time>
      </trkpt>
      <trkpt lat="44.35384" lon="2.57723">
        <ele>601.298</ele>
        <time>2013-01-28T14:45:05Z</time>
      </trkpt>
      <trkpt lat="44.35382" lon="2.57715">
        <ele>601.238</ele>
        <time>2013-01-28T14:45:10Z</time>
      </trkpt>
      <trkpt lat="44.35381" lon="2.57712">
        <ele>601.911</ele>
        <time>2013-01-28T14:45:17Z</time>
      </trkpt>
      <trkpt lat="44.35381" lon="2.57712">
        <ele>603.879</ele>
        <time>2013-01-28T14:45:22Z</time>
      </trkpt>
      <trkpt lat="44.35378" lon="2.57707">
        <ele>609.157</ele>
        <time>2013-01-28T14:45:25Z</time>
      </trkpt>
      <trkpt lat="44.35389" lon="2.57685">
        <ele>640.117</ele>
        <time>2013-01-28T14:45:36Z</time>
      </trkpt>
      <trkpt lat="44.35399" lon="2.5768">
        <ele>656.389</ele>
        <time>2013-01-28T14:45:42Z</time>
      </trkpt>
      <trkpt lat="44.35409" lon="2.57675">
        <ele>664.776</ele>
        <time>2013-01-28T14:45:48Z</time>
      </trkpt>
      <trkpt lat="44.35421" lon="2.5767">
        <ele>672.994</ele>
        <time>2013-01-28T14:45:55Z</time>
      </trkpt>
      <trkpt lat="44.35429" lon="2.57666">
        <ele>676.744</ele>
        <time>2013-01-28T14:46:00Z</time>
      </trkpt>
      <trkpt lat="44.35433" lon="2.57664">
        <ele>679.694</ele>
        <time>2013-01-28T14:46:02Z</time>
      </trkpt>
      <trkpt lat="44.35458" lon="2.57653">
        <ele>678.951</ele>
        <time>2013-01-28T14:46:08Z</time>
      </trkpt>
      <trkpt lat="44.35458" lon="2.57653">
        <ele>670.248</ele>
        <time>2013-01-28T14:46:13Z</time>
      </trkpt>
      <trkpt lat="44.35454" lon="2.57638">
        <ele>658.557</ele>
        <time>2013-01-28T14:46:19Z</time>
      </trkpt>
      <trkpt lat="44.35447" lon="2.57613">
        <ele>645.237</ele>
        <time>2013-01-28T14:46:26Z</time>
      </trkpt>
      <trkpt lat="44.35443" lon="2.57587">
        <ele>639.637</ele>
        <time>2013-01-28T14:46:32Z</time>
      </trkpt>
      <trkpt lat="44.35441" lon="2.57566">
        <ele>630.576</ele>
        <time>2013-01-28T14:46:37Z</time>
      </trkpt>
      <trkpt lat="44.35437" lon="2.57549">
        <ele>625.086</ele>
        <time>2013-01-28T14:46:42Z</time>
      </trkpt>
      <trkpt lat="44.35434" lon="2.57538">
        <ele>624.257</ele>
        <time>2013-01-28T14:46:47Z</time>
      </trkpt>
      <trkpt lat="44.3543" lon="2.57521">
        <ele>621.838</ele>
        <time>2013-01-28T14:46:52Z</time>
      </trkpt>
      <trkpt lat="44.35425" lon="2.57505">
        <ele>621.458</ele>
        <time>2013-01-28T14:46:59Z</time>
      </trkpt>
      <trkpt lat="44.35421" lon="2.57493">
        <ele>625.241</ele>
        <time>2013-01-28T14:47:04Z</time>
      </trkpt>
      <trkpt lat="44.35418" lon="2.57484">
        <ele>630.07</ele>
        <time>2013-01-28T14:47:09Z</time>
      </trkpt>
      <trkpt lat="44.35424" lon="2.57455">
        <ele>636.661</ele>
        <time>2013-01-28T14:47:16Z</time>
      </trkpt>
      <trkpt lat="44.35433" lon="2.57436">
        <ele>643.332</ele>
        <time>2013-01-28T14:47:22Z</time>
      </trkpt>
      <trkpt lat="44.3544" lon="2.57419">
        <ele>642.14</ele>
        <time>2013-01-28T14:47:28Z</time>
      </trkpt>
      <trkpt lat="44.35424" lon="2.57407">
        <ele>642.549</ele>
        <time>2013-01-28T14:47:32Z</time>
      </trkpt>
      <trkpt lat="44.35423" lon="2.57405">
        <ele>644.309</ele>
        <time>2013-01-28T14:47:33Z</time>
      </trkpt>
      <trkpt lat="44.35417" lon="2.57399">
        <ele>648.66</ele>
        <time>2013-01-28T14:47:39Z</time>
      </trkpt>
      <trkpt lat="44.35449" lon="2.57396">
        <ele>641.458</ele>
        <time>2013-01-28T14:47:44Z</time>
      </trkpt>
      <trkpt lat="44.35455" lon="2.57379">
        <ele>640.418</ele>
        <time>2013-01-28T14:47:49Z</time>
      </trkpt>
      <trkpt lat="44.35458" lon="2.5737">
        <ele>639.608</ele>
        <time>2013-01-28T14:47:53Z</time>
      </trkpt>
      <trkpt lat="44.35404" lon="2.57322">
        <ele>635.678</ele>
        <time>2013-01-28T14:47:58Z</time>
      </trkpt>
      <trkpt lat="44.35388" lon="2.57365">
        <ele>634.287</ele>
        <time>2013-01-28T14:48:00Z</time>
      </trkpt>
      <trkpt lat="44.35406" lon="2.57316">
        <ele>631.687</ele>
        <time>2013-01-28T14:48:06Z</time>
      </trkpt>
      <trkpt lat="44.35369" lon="2.57342">
        <ele>626.287</ele>
        <time>2013-01-28T14:48:13Z</time>
      </trkpt>
      <trkpt lat="44.35369" lon="2.57342">
        <ele>627.586</ele>
        <time>2013-01-28T14:48:16Z</time>
      </trkpt>
      <trkpt lat="44.35344" lon="2.57287">
        <ele>627.228</ele>
        <time>2013-01-28T14:48:25Z</time>
      </trkpt>
      <trkpt lat="44.35344" lon="2.57287">
        <ele>627.769</ele>
        <time>2013-01-28T14:48:26Z</time>
      </trkpt>
      <trkpt lat="44.35344" lon="2.57313">
        <ele>628.018</ele>
        <time>2013-01-28T14:48:31Z</time>
      </trkpt>
      <trkpt lat="44.35344" lon="2.57313">
        <ele>626.146</ele>
        <time>2013-01-28T14:48:34Z</time>
      </trkpt>
    </trkseg>
  </trk>
</gpx>